DLH249 ZKPY-EDDF
Flight info
| Callsign | DLH249 |
|---|---|
| Flight time | N/A |
| Altitude | 37000 |
| Route | JON11D JONJU A575 UPREK W28 ISBOS DCT NUKTI B215 FKG A368 SARIN/K0865F370 N161 GASBI/N0475F370 N161 LEYLA N644 TETRO DCT SARPI UM10 GOKPA UL746 ODERO DCT LUGEB DCT DEGET DCT ARSIN DCT SUBEN DCT AKINI T161 DEBHI SPESA5B |
| Aircraft | A343/H-SDE2E3FGHIJ4J5M1RWXY/LB1D1 |
Departure
| Time | 2026-04-19 20:29 |
|---|---|
| Airport | Pyongyang Sunan International Airport (ZKPY) |
Arrival
| Time | N/A |
|---|---|
| Airport | Frankfurt Main Airport (EDDF) |
| Time | Latitude | Longitude | Altitude | Speed | Heading |
|---|---|---|---|---|---|
| 2026-04-19 20:06 | 39.20135 | 125.67508 | 112 ft | 0 kts | 74° |
| 2026-04-19 20:18 | 39.20134 | 125.67504 | 112 ft | 3 kts | 73° |
| 2026-04-19 20:19 | 39.20124 | 125.67473 | 111 ft | 4 kts | 58° |
| 2026-04-19 20:19 | 39.20112 | 125.67448 | 112 ft | 1 kts | 58° |
| 2026-04-19 20:24 | 39.20112 | 125.67449 | 112 ft | 2 kts | 53° |
| 2026-04-19 20:24 | 39.20141 | 125.67441 | 113 ft | 4 kts | 332° |
| 2026-04-19 20:24 | 39.20174 | 125.67423 | 113 ft | 7 kts | 341° |
| 2026-04-19 20:25 | 39.20246 | 125.67403 | 113 ft | 15 kts | 348° |
| 2026-04-19 20:25 | 39.20356 | 125.67362 | 113 ft | 16 kts | 341° |
| 2026-04-19 20:25 | 39.20461 | 125.67319 | 113 ft | 15 kts | 343° |
| 2026-04-19 20:25 | 39.20581 | 125.67274 | 113 ft | 22 kts | 343° |
| 2026-04-19 20:26 | 39.20752 | 125.67207 | 114 ft | 30 kts | 343° |
| 2026-04-19 20:26 | 39.20974 | 125.67121 | 115 ft | 36 kts | 343° |
| 2026-04-19 20:26 | 39.21236 | 125.67017 | 116 ft | 42 kts | 343° |
| 2026-04-19 20:26 | 39.21533 | 125.66900 | 114 ft | 47 kts | 343° |
| 2026-04-19 20:27 | 39.21854 | 125.66772 | 117 ft | 51 kts | 342° |
| 2026-04-19 20:27 | 39.22052 | 125.66664 | 116 ft | 22 kts | 298° |
| 2026-04-19 20:27 | 39.21991 | 125.66479 | 116 ft | 27 kts | 199° |
| 2026-04-19 20:27 | 39.21791 | 125.66538 | 116 ft | 34 kts | 162° |
| 2026-04-19 20:28 | 39.21427 | 125.66682 | 115 ft | 79 kts | 163° |
| 2026-04-19 20:28 | 39.20722 | 125.66960 | 113 ft | 133 kts | 163° |
| 2026-04-19 20:28 | 39.19676 | 125.67370 | 111 ft | 180 kts | 163° |
| 2026-04-19 20:28 | 39.18433 | 125.67867 | 526 ft | 194 kts | 165° |
| 2026-04-19 20:29 | 39.17078 | 125.68332 | 1029 ft | 210 kts | 172° |
| 2026-04-19 20:29 | 39.15495 | 125.68020 | 890 ft | 260 kts | 210° |
| 2026-04-19 20:29 | 39.14166 | 125.66261 | 1103 ft | 293 kts | 244° |
| 2026-04-19 20:30 | 39.14514 | 125.61180 | 2993 ft | 294 kts | 304° |
| 2026-04-19 20:30 | 39.16102 | 125.59541 | 4056 ft | 301 kts | 332° |
| 2026-04-19 20:30 | 39.18221 | 125.58961 | 4493 ft | 326 kts | 355° |
| 2026-04-19 20:30 | 39.20557 | 125.58786 | 4744 ft | 345 kts | 349° |
| 2026-04-19 20:31 | 39.22964 | 125.58165 | 4996 ft | 361 kts | 340° |
| 2026-04-19 20:31 | 39.25385 | 125.57140 | 5491 ft | 364 kts | 335° |
| 2026-04-19 20:31 | 39.27677 | 125.56029 | 6655 ft | 330 kts | 334° |
| 2026-04-19 20:31 | 39.29679 | 125.55095 | 7748 ft | 291 kts | 334° |
| 2026-04-19 20:32 | 39.31559 | 125.54247 | 8537 ft | 291 kts | 334° |
| 2026-04-19 20:32 | 39.33531 | 125.53355 | 8840 ft | 308 kts | 335° |
| 2026-04-19 20:32 | 39.35570 | 125.52428 | 9491 ft | 309 kts | 334° |
| 2026-04-19 20:32 | 39.37581 | 125.51472 | 10174 ft | 306 kts | 327° |
| 2026-04-19 20:33 | 39.39361 | 125.49948 | 10448 ft | 313 kts | 316° |
| 2026-04-19 20:33 | 39.41189 | 125.48278 | 10660 ft | 331 kts | 320° |
| 2026-04-19 20:33 | 39.43202 | 125.46667 | 10877 ft | 348 kts | 323° |
| 2026-04-19 20:33 | 39.45344 | 125.45118 | 11105 ft | 364 kts | 325° |
| 2026-04-19 20:34 | 39.47630 | 125.43550 | 11304 ft | 378 kts | 325° |
| 2026-04-19 20:34 | 39.49802 | 125.41609 | 11575 ft | 382 kts | 315° |
| 2026-04-19 20:34 | 39.51870 | 125.39416 | 12032 ft | 386 kts | 313° |
| 2026-04-19 20:34 | 39.53955 | 125.37176 | 12537 ft | 391 kts | 313° |
| 2026-04-19 20:35 | 39.56070 | 125.34913 | 13051 ft | 396 kts | 313° |
| 2026-04-19 20:35 | 39.58203 | 125.32644 | 13655 ft | 397 kts | 313° |
| 2026-04-19 20:35 | 39.60347 | 125.30367 | 14195 ft | 400 kts | 313° |
| 2026-04-19 20:35 | 39.62514 | 125.28062 | 14651 ft | 404 kts | 313° |
| 2026-04-19 20:36 | 39.64670 | 125.25772 | 15164 ft | 406 kts | 313° |
| 2026-04-19 20:36 | 39.66863 | 125.23441 | 15729 ft | 408 kts | 313° |
| 2026-04-19 20:36 | 39.68325 | 125.21823 | 16087 ft | 407 kts | 310° |
| 2026-04-19 20:36 | 39.69703 | 125.20165 | 16435 ft | 406 kts | 308° |
| 2026-04-19 20:37 | 39.73018 | 125.15835 | 17314 ft | 408 kts | 306° |
| 2026-04-19 20:37 | 39.74989 | 125.13152 | 17832 ft | 410 kts | 306° |
| 2026-04-19 20:37 | 39.76961 | 125.10450 | 18314 ft | 413 kts | 306° |
| 2026-04-19 20:37 | 39.78944 | 125.07738 | 18787 ft | 414 kts | 306° |
| 2026-04-19 20:38 | 39.80908 | 125.05065 | 19298 ft | 414 kts | 306° |
| 2026-04-19 20:38 | 39.82908 | 125.02361 | 19789 ft | 415 kts | 306° |
| 2026-04-19 20:38 | 39.84915 | 124.99653 | 20276 ft | 416 kts | 306° |
| 2026-04-19 20:38 | 39.86930 | 124.96936 | 20775 ft | 416 kts | 306° |
| 2026-04-19 20:39 | 39.88940 | 124.94233 | 21348 ft | 415 kts | 306° |
| 2026-04-19 20:39 | 39.90952 | 124.91521 | 21766 ft | 417 kts | 306° |
| 2026-04-19 20:39 | 39.92971 | 124.88792 | 22184 ft | 420 kts | 306° |
| 2026-04-19 20:39 | 39.95006 | 124.86039 | 22562 ft | 423 kts | 306° |
| 2026-04-19 20:40 | 39.97054 | 124.83264 | 22972 ft | 425 kts | 306° |
| 2026-04-19 20:40 | 39.99083 | 124.80512 | 23404 ft | 426 kts | 306° |
| 2026-04-19 20:40 | 40.01143 | 124.77719 | 23790 ft | 428 kts | 306° |
| 2026-04-19 20:40 | 40.03210 | 124.74921 | 24127 ft | 429 kts | 306° |
| 2026-04-19 20:41 | 40.05279 | 124.72109 | 24491 ft | 430 kts | 306° |
| 2026-04-19 20:41 | 40.07355 | 124.69282 | 24832 ft | 431 kts | 306° |
| 2026-04-19 20:41 | 40.09428 | 124.66452 | 25176 ft | 431 kts | 306° |
| 2026-04-19 20:41 | 40.10101 | 124.65532 | 25285 ft | 432 kts | 306° |
| 2026-04-19 20:42 | 40.11644 | 124.63423 | 25533 ft | 432 kts | 306° |
| 2026-04-19 20:42 | 40.13791 | 124.60488 | 25872 ft | 433 kts | 305° |
| 2026-04-19 20:42 | 40.15862 | 124.57616 | 26226 ft | 432 kts | 303° |
| 2026-04-19 20:43 | 40.17685 | 124.54534 | 26541 ft | 424 kts | 295° |
| 2026-04-19 20:43 | 40.19092 | 124.51192 | 26859 ft | 416 kts | 287° |
| 2026-04-19 20:43 | 40.20174 | 124.47702 | 27164 ft | 413 kts | 284° |
| 2026-04-19 20:43 | 40.21121 | 124.44161 | 27478 ft | 412 kts | 282° |
| 2026-04-19 20:44 | 40.21999 | 124.40581 | 27765 ft | 412 kts | 281° |
| 2026-04-19 20:44 | 40.22835 | 124.37047 | 28036 ft | 413 kts | 281° |
| 2026-04-19 20:44 | 40.23680 | 124.33445 | 28364 ft | 413 kts | 281° |
| 2026-04-19 20:44 | 40.24529 | 124.29861 | 28796 ft | 411 kts | 281° |
| 2026-04-19 20:45 | 40.25384 | 124.26297 | 29274 ft | 407 kts | 281° |
| 2026-04-19 20:45 | 40.26236 | 124.22774 | 29696 ft | 405 kts | 281° |
| 2026-04-19 20:45 | 40.27085 | 124.19268 | 30080 ft | 403 kts | 281° |
| 2026-04-19 20:45 | 40.27929 | 124.15784 | 30406 ft | 401 kts | 281° |
| 2026-04-19 20:46 | 40.28769 | 124.12317 | 30729 ft | 398 kts | 281° |
| 2026-04-19 20:46 | 40.29604 | 124.08862 | 31066 ft | 396 kts | 281° |
| 2026-04-19 20:46 | 40.30431 | 124.05437 | 31384 ft | 393 kts | 280° |
| 2026-04-19 20:46 | 40.31244 | 124.02068 | 31684 ft | 391 kts | 280° |
| 2026-04-19 20:47 | 40.32062 | 123.98674 | 31996 ft | 389 kts | 280° |
| 2026-04-19 20:47 | 40.32871 | 123.95304 | 32316 ft | 387 kts | 280° |
| 2026-04-19 20:47 | 40.33675 | 123.91951 | 32635 ft | 384 kts | 280° |
| 2026-04-19 20:47 | 40.34472 | 123.88619 | 32944 ft | 382 kts | 280° |
| 2026-04-19 20:48 | 40.35265 | 123.85303 | 33230 ft | 380 kts | 279° |
| 2026-04-19 20:48 | 40.36054 | 123.81997 | 33502 ft | 378 kts | 279° |
| 2026-04-19 20:48 | 40.36836 | 123.78713 | 33760 ft | 376 kts | 279° |
| 2026-04-19 20:48 | 40.37615 | 123.75446 | 34017 ft | 375 kts | 279° |
| 2026-04-19 20:49 | 40.38382 | 123.72226 | 34321 ft | 372 kts | 279° |
| 2026-04-19 20:49 | 40.39152 | 123.68987 | 34518 ft | 371 kts | 279° |
| 2026-04-19 20:49 | 40.39919 | 123.65748 | 34640 ft | 372 kts | 279° |
| 2026-04-19 20:49 | 40.40684 | 123.62506 | 34775 ft | 372 kts | 279° |
| 2026-04-19 20:50 | 40.41454 | 123.59250 | 34919 ft | 373 kts | 279° |
| 2026-04-19 20:50 | 40.42221 | 123.56000 | 35071 ft | 373 kts | 279° |
| 2026-04-19 20:50 | 40.42986 | 123.52751 | 35214 ft | 373 kts | 279° |
| 2026-04-19 20:50 | 40.43750 | 123.49505 | 35337 ft | 373 kts | 279° |
| 2026-04-19 20:51 | 40.44516 | 123.46249 | 35456 ft | 373 kts | 279° |
| 2026-04-19 20:51 | 40.45278 | 123.43008 | 35670 ft | 371 kts | 279° |
| 2026-04-19 20:51 | 40.46040 | 123.39766 | 35851 ft | 370 kts | 279° |
| 2026-04-19 20:51 | 40.46797 | 123.36534 | 35962 ft | 371 kts | 279° |
| 2026-04-19 20:52 | 40.48298 | 123.30099 | 36181 ft | 371 kts | 279° |
| 2026-04-19 20:52 | 40.49053 | 123.26856 | 36289 ft | 371 kts | 279° |
| 2026-04-19 20:52 | 40.49806 | 123.23618 | 36401 ft | 371 kts | 279° |
| 2026-04-19 20:53 | 40.51314 | 123.17126 | 36618 ft | 371 kts | 279° |
| 2026-04-19 20:53 | 40.52068 | 123.13876 | 36793 ft | 371 kts | 279° |
| 2026-04-19 20:53 | 40.52816 | 123.10652 | 36998 ft | 368 kts | 279° |
| 2026-04-19 20:54 | 40.54312 | 123.04176 | 37048 ft | 372 kts | 279° |
| 2026-04-19 20:54 | 40.55808 | 122.97674 | 37078 ft | 370 kts | 279° |
| 2026-04-19 20:55 | 40.57296 | 122.91207 | 37074 ft | 369 kts | 279° |
| 2026-04-19 20:55 | 40.58526 | 122.85834 | 37081 ft | 369 kts | 279° |
| 2026-04-19 20:56 | 40.60246 | 122.78302 | 37081 ft | 370 kts | 279° |
| 2026-04-19 20:56 | 40.61478 | 122.72898 | 37078 ft | 370 kts | 279° |
| 2026-04-19 20:57 | 40.62954 | 122.66397 | 37076 ft | 370 kts | 279° |
| 2026-04-19 20:57 | 40.64424 | 122.59906 | 37080 ft | 370 kts | 279° |
| 2026-04-19 20:58 | 40.65891 | 122.53409 | 37089 ft | 370 kts | 279° |
| 2026-04-19 20:58 | 40.67357 | 122.46896 | 37073 ft | 371 kts | 279° |
| 2026-04-19 20:59 | 40.68824 | 122.40366 | 37081 ft | 371 kts | 279° |
| 2026-04-19 20:59 | 40.70282 | 122.33852 | 37079 ft | 371 kts | 279° |
| 2026-04-19 21:00 | 40.71741 | 122.27316 | 37071 ft | 371 kts | 279° |
| 2026-04-19 21:00 | 40.73183 | 122.20837 | 37077 ft | 371 kts | 279° |
| 2026-04-19 21:01 | 40.74634 | 122.14298 | 37075 ft | 371 kts | 279° |
| 2026-04-19 21:01 | 40.76049 | 122.07896 | 37075 ft | 371 kts | 278° |
| 2026-04-19 21:02 | 40.77485 | 122.01389 | 37072 ft | 371 kts | 278° |
| 2026-04-19 21:02 | 40.78922 | 121.94853 | 37075 ft | 371 kts | 278° |
| 2026-04-19 21:03 | 40.80360 | 121.88286 | 37075 ft | 374 kts | 278° |
| 2026-04-19 21:03 | 40.81808 | 121.81654 | 37074 ft | 376 kts | 278° |
| 2026-04-19 21:04 | 40.83257 | 121.75012 | 37075 ft | 376 kts | 278° |
| 2026-04-19 21:04 | 40.84693 | 121.68410 | 37072 ft | 376 kts | 278° |
| 2026-04-19 21:05 | 40.86133 | 121.61762 | 37075 ft | 377 kts | 278° |
| 2026-04-19 21:05 | 40.87579 | 121.55054 | 37073 ft | 382 kts | 278° |
| 2026-04-19 21:06 | 40.89039 | 121.48269 | 37073 ft | 383 kts | 278° |
| 2026-04-19 21:06 | 40.90495 | 121.41497 | 37073 ft | 382 kts | 278° |
| 2026-04-19 21:07 | 40.91935 | 121.34770 | 37069 ft | 382 kts | 278° |
| 2026-04-19 21:07 | 40.93378 | 121.27998 | 37070 ft | 383 kts | 279° |
| 2026-04-19 21:08 | 40.94822 | 121.21204 | 37069 ft | 383 kts | 279° |
| 2026-04-19 21:08 | 40.96260 | 121.14419 | 37070 ft | 383 kts | 279° |
| 2026-04-19 21:09 | 40.97693 | 121.07634 | 37075 ft | 383 kts | 279° |
| 2026-04-19 21:09 | 40.99123 | 121.00838 | 37071 ft | 383 kts | 279° |
| 2026-04-19 21:10 | 41.00540 | 120.94086 | 37071 ft | 383 kts | 279° |
| 2026-04-19 21:10 | 41.01962 | 120.87286 | 37058 ft | 383 kts | 279° |
| 2026-04-19 21:11 | 41.03376 | 120.80513 | 37076 ft | 381 kts | 279° |
| 2026-04-19 21:11 | 41.04780 | 120.73756 | 37077 ft | 380 kts | 279° |
| 2026-04-19 21:12 | 41.06178 | 120.67001 | 37073 ft | 379 kts | 279° |
| 2026-04-19 21:12 | 41.07572 | 120.60250 | 37072 ft | 379 kts | 279° |
| 2026-04-19 21:13 | 41.08959 | 120.53505 | 37079 ft | 379 kts | 279° |
| 2026-04-19 21:13 | 41.10334 | 120.46799 | 37084 ft | 379 kts | 279° |
| 2026-04-19 21:14 | 41.11715 | 120.40045 | 37101 ft | 380 kts | 279° |
| 2026-04-19 21:14 | 41.13097 | 120.33254 | 37085 ft | 383 kts | 279° |
| 2026-04-19 21:15 | 41.14485 | 120.26416 | 37085 ft | 384 kts | 279° |
| 2026-04-19 21:15 | 41.15870 | 120.19579 | 37089 ft | 383 kts | 278° |
| 2026-04-19 21:16 | 41.17252 | 120.12733 | 37096 ft | 384 kts | 278° |
| 2026-04-19 21:16 | 41.18622 | 120.05923 | 37092 ft | 385 kts | 279° |
| 2026-04-19 21:17 | 41.20006 | 119.99005 | 37098 ft | 388 kts | 279° |
| 2026-04-19 21:17 | 41.21394 | 119.92058 | 37096 ft | 388 kts | 279° |
| 2026-04-19 21:18 | 41.22775 | 119.85131 | 37100 ft | 388 kts | 279° |
| 2026-04-19 21:18 | 41.24150 | 119.78199 | 37138 ft | 388 kts | 279° |
| 2026-04-19 21:19 | 41.25517 | 119.71276 | 37103 ft | 391 kts | 279° |
| 2026-04-19 21:19 | 41.26896 | 119.64268 | 37108 ft | 392 kts | 279° |
| 2026-04-19 21:20 | 41.28274 | 119.57254 | 37103 ft | 392 kts | 279° |
| 2026-04-19 21:20 | 41.29647 | 119.50237 | 37105 ft | 392 kts | 279° |
| 2026-04-19 21:21 | 41.31015 | 119.43217 | 37106 ft | 392 kts | 280° |
| 2026-04-19 21:21 | 41.32380 | 119.36191 | 37103 ft | 392 kts | 280° |
| 2026-04-19 21:22 | 41.33740 | 119.29161 | 37103 ft | 392 kts | 280° |
| 2026-04-19 21:22 | 41.35095 | 119.22136 | 37108 ft | 392 kts | 280° |
| 2026-04-19 21:23 | 41.36446 | 119.15101 | 37142 ft | 392 kts | 280° |
| 2026-04-19 21:23 | 41.37781 | 119.08131 | 37113 ft | 390 kts | 280° |
| 2026-04-19 21:24 | 41.39115 | 119.01140 | 37114 ft | 389 kts | 280° |
| 2026-04-19 21:24 | 41.40442 | 118.94158 | 37109 ft | 389 kts | 280° |
| 2026-04-19 21:25 | 41.41766 | 118.87168 | 37110 ft | 389 kts | 280° |
| 2026-04-19 21:25 | 41.43084 | 118.80182 | 37112 ft | 388 kts | 280° |
| 2026-04-19 21:26 | 41.44392 | 118.73235 | 37112 ft | 385 kts | 280° |
| 2026-04-19 21:26 | 41.45690 | 118.66307 | 37110 ft | 385 kts | 280° |
| 2026-04-19 21:27 | 41.46975 | 118.59423 | 37116 ft | 385 kts | 280° |
| 2026-04-19 21:27 | 41.48264 | 118.52488 | 37119 ft | 385 kts | 280° |
| 2026-04-19 21:28 | 41.49548 | 118.45559 | 37123 ft | 384 kts | 280° |
| 2026-04-19 21:28 | 41.50862 | 118.38642 | 37121 ft | 384 kts | 281° |
| 2026-04-19 21:29 | 41.52231 | 118.31745 | 37127 ft | 384 kts | 281° |
| 2026-04-19 21:29 | 41.53585 | 118.24897 | 37126 ft | 384 kts | 281° |
| 2026-04-19 21:30 | 41.54936 | 118.17993 | 37139 ft | 384 kts | 281° |
| 2026-04-19 21:30 | 41.56278 | 118.11091 | 37134 ft | 383 kts | 281° |
| 2026-04-19 21:31 | 41.57614 | 118.04180 | 37132 ft | 383 kts | 281° |
| 2026-04-19 21:31 | 41.58937 | 117.97322 | 37136 ft | 384 kts | 281° |
| 2026-04-19 21:32 | 41.60268 | 117.90399 | 37130 ft | 383 kts | 281° |
| 2026-04-19 21:32 | 41.61590 | 117.83496 | 37134 ft | 383 kts | 281° |
| 2026-04-19 21:33 | 41.62898 | 117.76640 | 37130 ft | 383 kts | 281° |
| 2026-04-19 21:33 | 41.64212 | 117.69730 | 37137 ft | 383 kts | 281° |
| 2026-04-19 21:34 | 41.65523 | 117.62817 | 37138 ft | 383 kts | 281° |
| 2026-04-19 21:34 | 41.66827 | 117.55907 | 37140 ft | 383 kts | 281° |
| 2026-04-19 21:35 | 41.68131 | 117.48972 | 37140 ft | 385 kts | 281° |
| 2026-04-19 21:35 | 41.69437 | 117.42005 | 37136 ft | 386 kts | 281° |
| 2026-04-19 21:36 | 41.70732 | 117.35078 | 37142 ft | 386 kts | 281° |
| 2026-04-19 21:36 | 41.72031 | 117.28099 | 37139 ft | 386 kts | 281° |
| 2026-04-19 21:37 | 41.73326 | 117.21116 | 37145 ft | 386 kts | 281° |
| 2026-04-19 21:37 | 41.74619 | 117.14115 | 37142 ft | 387 kts | 281° |
| 2026-04-19 21:38 | 41.75912 | 117.07092 | 37144 ft | 388 kts | 281° |
| 2026-04-19 21:38 | 41.77198 | 117.00083 | 37144 ft | 387 kts | 281° |
| 2026-04-19 21:39 | 41.78479 | 116.93075 | 37142 ft | 387 kts | 280° |
| 2026-04-19 21:39 | 41.79750 | 116.86086 | 37149 ft | 390 kts | 280° |
| 2026-04-19 21:40 | 41.81675 | 116.75460 | 37152 ft | 391 kts | 280° |
| 2026-04-19 21:41 | 41.82953 | 116.68373 | 37155 ft | 391 kts | 280° |
| 2026-04-19 21:41 | 41.84227 | 116.61287 | 37156 ft | 391 kts | 280° |
| 2026-04-19 21:42 | 41.85497 | 116.54187 | 37156 ft | 394 kts | 280° |
| 2026-04-19 21:42 | 41.86777 | 116.46998 | 37161 ft | 398 kts | 280° |
| 2026-04-19 21:43 | 41.88055 | 116.39805 | 37169 ft | 397 kts | 280° |
| 2026-04-19 21:43 | 41.89125 | 116.33759 | 37170 ft | 397 kts | 280° |
| 2026-04-19 21:44 | 41.90388 | 116.26598 | 37176 ft | 397 kts | 280° |
| 2026-04-19 21:44 | 41.91660 | 116.19347 | 37178 ft | 400 kts | 280° |
| 2026-04-19 21:45 | 41.92933 | 116.12066 | 37183 ft | 401 kts | 280° |
| 2026-04-19 21:45 | 41.94203 | 116.04782 | 37172 ft | 400 kts | 280° |
| 2026-04-19 21:46 | 41.95529 | 115.97495 | 37180 ft | 402 kts | 284° |
| 2026-04-19 21:46 | 41.97740 | 115.90605 | 37196 ft | 406 kts | 293° |
| 2026-04-19 21:47 | 42.00421 | 115.83856 | 37194 ft | 407 kts | 294° |
| 2026-04-19 21:47 | 42.03136 | 115.77233 | 37187 ft | 407 kts | 294° |
| 2026-04-19 21:48 | 42.05858 | 115.70560 | 37189 ft | 407 kts | 294° |
| 2026-04-19 21:48 | 42.08569 | 115.63859 | 37189 ft | 407 kts | 294° |
| 2026-04-19 21:49 | 42.11267 | 115.57159 | 37196 ft | 406 kts | 294° |
| 2026-04-19 21:49 | 42.13956 | 115.50460 | 37199 ft | 406 kts | 294° |
| 2026-04-19 21:50 | 42.16621 | 115.43810 | 37201 ft | 406 kts | 294° |
| 2026-04-19 21:50 | 42.19305 | 115.37098 | 37196 ft | 406 kts | 295° |
| 2026-04-19 21:51 | 42.21802 | 115.30296 | 37202 ft | 403 kts | 288° |
| 2026-04-19 21:51 | 42.23070 | 115.22981 | 37207 ft | 400 kts | 274° |
| 2026-04-19 21:52 | 42.22938 | 115.15475 | 37206 ft | 401 kts | 267° |
| 2026-04-19 21:52 | 42.22421 | 115.07975 | 37207 ft | 402 kts | 266° |
| 2026-04-19 21:53 | 42.21856 | 115.00505 | 37201 ft | 402 kts | 266° |
| 2026-04-19 21:53 | 42.21306 | 114.92992 | 37204 ft | 402 kts | 266° |
| 2026-04-19 21:54 | 42.20768 | 114.85466 | 37198 ft | 403 kts | 266° |
| 2026-04-19 21:54 | 42.20230 | 114.77941 | 37198 ft | 403 kts | 266° |
| 2026-04-19 21:55 | 42.19687 | 114.70423 | 37197 ft | 403 kts | 266° |
| 2026-04-19 21:55 | 42.19138 | 114.62905 | 37201 ft | 403 kts | 266° |
| 2026-04-19 21:56 | 42.18583 | 114.55385 | 37199 ft | 403 kts | 266° |
| 2026-04-19 21:56 | 42.18023 | 114.47868 | 37201 ft | 403 kts | 266° |
| 2026-04-19 21:57 | 42.17459 | 114.40346 | 37200 ft | 403 kts | 266° |
| 2026-04-19 21:57 | 42.16892 | 114.32866 | 37206 ft | 404 kts | 266° |
| 2026-04-19 21:58 | 42.16315 | 114.25310 | 37182 ft | 404 kts | 266° |
| 2026-04-19 21:58 | 42.15734 | 114.17774 | 37208 ft | 404 kts | 266° |
| 2026-04-19 21:59 | 42.15147 | 114.10235 | 37213 ft | 403 kts | 266° |
| 2026-04-19 21:59 | 42.14561 | 114.02752 | 37213 ft | 404 kts | 266° |
| 2026-04-19 22:00 | 42.13971 | 113.95285 | 37218 ft | 405 kts | 266° |
| 2026-04-19 22:00 | 42.13368 | 113.87735 | 37226 ft | 405 kts | 266° |
| 2026-04-19 22:01 | 42.12761 | 113.80184 | 37226 ft | 405 kts | 266° |
| 2026-04-19 22:01 | 42.12152 | 113.72668 | 37223 ft | 406 kts | 266° |
| 2026-04-19 22:02 | 42.11532 | 113.65080 | 37222 ft | 407 kts | 266° |
| 2026-04-19 22:02 | 42.10908 | 113.57504 | 37223 ft | 407 kts | 265° |
| 2026-04-19 22:03 | 42.10211 | 113.49986 | 37224 ft | 407 kts | 261° |
| 2026-04-19 22:03 | 42.08946 | 113.42543 | 37226 ft | 408 kts | 259° |
| 2026-04-19 22:04 | 42.07556 | 113.35120 | 37233 ft | 410 kts | 259° |
| 2026-04-19 22:04 | 42.06138 | 113.27681 | 37232 ft | 410 kts | 259° |
| 2026-04-19 22:05 | 42.04720 | 113.20241 | 37235 ft | 410 kts | 259° |
| 2026-04-19 22:05 | 42.03309 | 113.12809 | 37235 ft | 410 kts | 259° |
| 2026-04-19 22:06 | 42.01895 | 113.05383 | 37233 ft | 410 kts | 259° |
| 2026-04-19 22:06 | 42.00474 | 112.97959 | 37238 ft | 410 kts | 259° |
| 2026-04-19 22:07 | 41.99057 | 112.90582 | 37232 ft | 410 kts | 258° |
| 2026-04-19 22:07 | 41.97627 | 112.83168 | 37227 ft | 410 kts | 258° |
| 2026-04-19 22:08 | 41.96192 | 112.75752 | 37229 ft | 410 kts | 259° |
| 2026-04-19 22:08 | 41.94939 | 112.68291 | 37230 ft | 408 kts | 265° |
| 2026-04-19 22:09 | 41.94984 | 112.60717 | 37229 ft | 405 kts | 279° |
| 2026-04-19 22:09 | 41.96256 | 112.53343 | 37227 ft | 406 kts | 284° |
| 2026-04-19 22:10 | 41.97764 | 112.46030 | 37227 ft | 406 kts | 285° |
| 2026-04-19 22:10 | 41.99285 | 112.38726 | 37233 ft | 406 kts | 284° |
| 2026-04-19 22:11 | 42.00782 | 112.31397 | 37239 ft | 406 kts | 284° |
| 2026-04-19 22:11 | 42.02250 | 112.24104 | 37239 ft | 406 kts | 284° |
| 2026-04-19 22:12 | 42.03719 | 112.16767 | 37243 ft | 406 kts | 284° |
| 2026-04-19 22:12 | 42.05183 | 112.09425 | 37244 ft | 406 kts | 284° |
| 2026-04-19 22:13 | 42.06645 | 112.02077 | 37243 ft | 406 kts | 284° |
| 2026-04-19 22:13 | 42.08101 | 111.94732 | 37244 ft | 406 kts | 284° |
| 2026-04-19 22:14 | 42.09545 | 111.87424 | 37248 ft | 406 kts | 284° |
| 2026-04-19 22:14 | 42.10993 | 111.80066 | 37252 ft | 406 kts | 284° |
| 2026-04-19 22:15 | 42.12436 | 111.72702 | 37248 ft | 406 kts | 284° |
| 2026-04-19 22:15 | 42.13872 | 111.65351 | 37250 ft | 406 kts | 284° |
| 2026-04-19 22:16 | 42.15307 | 111.57977 | 37250 ft | 406 kts | 284° |
| 2026-04-19 22:16 | 42.16727 | 111.50652 | 37249 ft | 406 kts | 284° |
| 2026-04-19 22:17 | 42.18151 | 111.43282 | 37246 ft | 406 kts | 284° |
| 2026-04-19 22:17 | 42.19568 | 111.35892 | 37245 ft | 406 kts | 283° |
| 2026-04-19 22:18 | 42.20225 | 111.28333 | 37242 ft | 407 kts | 270° |
| 2026-04-19 22:18 | 42.19685 | 111.20762 | 37247 ft | 409 kts | 265° |
| 2026-04-19 22:19 | 42.18871 | 111.13168 | 37248 ft | 409 kts | 264° |
| 2026-04-19 22:19 | 42.18014 | 111.05550 | 37248 ft | 410 kts | 264° |
| 2026-04-19 22:20 | 42.17174 | 110.97942 | 37248 ft | 410 kts | 265° |
| 2026-04-19 22:20 | 42.16343 | 110.90329 | 37248 ft | 410 kts | 265° |
| 2026-04-19 22:21 | 42.15511 | 110.82719 | 37248 ft | 410 kts | 264° |
| 2026-04-19 22:21 | 42.14673 | 110.75111 | 37253 ft | 410 kts | 265° |
| 2026-04-19 22:22 | 42.13830 | 110.67511 | 37255 ft | 410 kts | 265° |
| 2026-04-19 22:22 | 42.12982 | 110.59912 | 37261 ft | 410 kts | 264° |
| 2026-04-19 22:23 | 42.12136 | 110.52381 | 37258 ft | 409 kts | 264° |
| 2026-04-19 22:23 | 42.11280 | 110.44805 | 37258 ft | 409 kts | 265° |
| 2026-04-19 22:24 | 42.10420 | 110.37244 | 37271 ft | 408 kts | 265° |
| 2026-04-19 22:24 | 42.09555 | 110.29673 | 37274 ft | 408 kts | 265° |
| 2026-04-19 22:25 | 42.08691 | 110.22162 | 37263 ft | 408 kts | 265° |
| 2026-04-19 22:25 | 42.07816 | 110.14604 | 37278 ft | 408 kts | 264° |
| 2026-04-19 22:26 | 42.06936 | 110.07045 | 37279 ft | 409 kts | 265° |
| 2026-04-19 22:26 | 42.06049 | 109.99475 | 37275 ft | 409 kts | 265° |
| 2026-04-19 22:27 | 42.05159 | 109.91919 | 37282 ft | 408 kts | 264° |
| 2026-04-19 22:27 | 42.04270 | 109.84423 | 37285 ft | 407 kts | 264° |
| 2026-04-19 22:28 | 42.03372 | 109.76885 | 37285 ft | 408 kts | 265° |
| 2026-04-19 22:28 | 42.02473 | 109.69378 | 37297 ft | 409 kts | 264° |
| 2026-04-19 22:29 | 42.01563 | 109.61828 | 37295 ft | 409 kts | 264° |
| 2026-04-19 22:29 | 42.00646 | 109.54266 | 37296 ft | 409 kts | 264° |
| 2026-04-19 22:30 | 41.99725 | 109.46717 | 37298 ft | 409 kts | 264° |
| 2026-04-19 22:30 | 41.98800 | 109.39176 | 37307 ft | 408 kts | 265° |
| 2026-04-19 22:31 | 41.98028 | 109.32914 | 37313 ft | 408 kts | 264° |
| 2026-04-19 22:31 | 41.96944 | 109.24165 | 37303 ft | 407 kts | 264° |
| 2026-04-19 22:32 | 41.96167 | 109.17934 | 37306 ft | 407 kts | 264° |
| 2026-04-19 22:32 | 41.95228 | 109.10438 | 37315 ft | 406 kts | 265° |
| 2026-04-19 22:33 | 41.94286 | 109.02958 | 37326 ft | 406 kts | 265° |
| 2026-04-19 22:33 | 41.93339 | 108.95482 | 37324 ft | 406 kts | 265° |
| 2026-04-19 22:34 | 41.92388 | 108.88006 | 37328 ft | 406 kts | 264° |
| 2026-04-19 22:34 | 41.91432 | 108.80541 | 37330 ft | 406 kts | 264° |
| 2026-04-19 22:35 | 41.90477 | 108.73120 | 37334 ft | 406 kts | 265° |
| 2026-04-19 22:35 | 41.89510 | 108.65644 | 37334 ft | 406 kts | 265° |
| 2026-04-19 22:36 | 41.88539 | 108.58181 | 37338 ft | 405 kts | 265° |
| 2026-04-19 22:36 | 41.87564 | 108.50726 | 37345 ft | 405 kts | 265° |
| 2026-04-19 22:37 | 41.86590 | 108.43315 | 37335 ft | 405 kts | 265° |
| 2026-04-19 22:37 | 41.85608 | 108.35889 | 37345 ft | 403 kts | 265° |
| 2026-04-19 22:38 | 41.84625 | 108.28483 | 37350 ft | 403 kts | 265° |
| 2026-04-19 22:38 | 41.83637 | 108.21074 | 37342 ft | 403 kts | 265° |
| 2026-04-19 22:39 | 41.82644 | 108.13672 | 37329 ft | 403 kts | 265° |
| 2026-04-19 22:39 | 41.81646 | 108.06272 | 37339 ft | 403 kts | 265° |
| 2026-04-19 22:40 | 41.80652 | 107.98941 | 37325 ft | 403 kts | 265° |
| 2026-04-19 22:40 | 41.79645 | 107.91548 | 37324 ft | 403 kts | 265° |
| 2026-04-19 22:41 | 41.78634 | 107.84157 | 37316 ft | 403 kts | 265° |
| 2026-04-19 22:41 | 41.77617 | 107.76765 | 37322 ft | 403 kts | 265° |
| 2026-04-19 22:42 | 41.76594 | 107.69375 | 37320 ft | 402 kts | 265° |
| 2026-04-19 22:42 | 41.75570 | 107.62011 | 37321 ft | 402 kts | 265° |
| 2026-04-19 22:43 | 41.74544 | 107.54660 | 37320 ft | 402 kts | 265° |
| 2026-04-19 22:43 | 41.73517 | 107.47336 | 37313 ft | 402 kts | 265° |
| 2026-04-19 22:44 | 41.72480 | 107.39979 | 37312 ft | 402 kts | 265° |
| 2026-04-19 22:44 | 41.71439 | 107.32628 | 37322 ft | 402 kts | 265° |
| 2026-04-19 22:45 | 41.70393 | 107.25281 | 37313 ft | 401 kts | 265° |
| 2026-04-19 22:45 | 41.69347 | 107.17979 | 37320 ft | 399 kts | 265° |
| 2026-04-19 22:46 | 41.68306 | 107.10735 | 37320 ft | 399 kts | 265° |
| 2026-04-19 22:46 | 41.67254 | 107.03445 | 37303 ft | 399 kts | 265° |
| 2026-04-19 22:47 | 41.66199 | 106.96179 | 37317 ft | 397 kts | 265° |
| 2026-04-19 22:47 | 41.65144 | 106.88942 | 37317 ft | 396 kts | 265° |
| 2026-04-19 22:48 | 41.64084 | 106.81693 | 37317 ft | 396 kts | 265° |
| 2026-04-19 22:48 | 41.63027 | 106.74510 | 37317 ft | 396 kts | 265° |
| 2026-04-19 22:49 | 41.61958 | 106.67276 | 37311 ft | 396 kts | 265° |
| 2026-04-19 22:49 | 41.60886 | 106.60051 | 37314 ft | 396 kts | 265° |
| 2026-04-19 22:50 | 41.59810 | 106.52843 | 37319 ft | 394 kts | 265° |
| 2026-04-19 22:50 | 41.58737 | 106.45691 | 37321 ft | 392 kts | 265° |
| 2026-04-19 22:51 | 41.57663 | 106.38550 | 37315 ft | 392 kts | 265° |
| 2026-04-19 22:51 | 41.56052 | 106.27896 | 37325 ft | 391 kts | 265° |
| 2026-04-19 22:52 | 41.54969 | 106.20783 | 37321 ft | 390 kts | 265° |
| 2026-04-19 22:52 | 41.53900 | 106.13678 | 37323 ft | 389 kts | 267° |
| 2026-04-19 22:53 | 41.53617 | 106.06614 | 37334 ft | 379 kts | 278° |
| 2026-04-19 22:53 | 41.54048 | 105.99672 | 37331 ft | 378 kts | 279° |
| 2026-04-19 22:54 | 41.54600 | 105.92687 | 37329 ft | 375 kts | 280° |
| 2026-04-19 22:54 | 41.55148 | 105.85785 | 37335 ft | 373 kts | 280° |
| 2026-04-19 22:55 | 41.55678 | 105.78888 | 37335 ft | 373 kts | 279° |
| 2026-04-19 22:55 | 41.56196 | 105.71984 | 37338 ft | 374 kts | 279° |
| 2026-04-19 22:56 | 41.56707 | 105.65077 | 37338 ft | 373 kts | 279° |
| 2026-04-19 22:56 | 41.57213 | 105.58186 | 37337 ft | 371 kts | 279° |
| 2026-04-19 22:57 | 41.57710 | 105.51369 | 37334 ft | 371 kts | 279° |
| 2026-04-19 22:57 | 41.58206 | 105.44521 | 37336 ft | 370 kts | 279° |
| 2026-04-19 22:58 | 41.58698 | 105.37668 | 37335 ft | 371 kts | 279° |
| 2026-04-19 22:58 | 41.59186 | 105.30813 | 37335 ft | 371 kts | 279° |
| 2026-04-19 22:59 | 41.59670 | 105.23947 | 37332 ft | 370 kts | 279° |
| 2026-04-19 22:59 | 41.60146 | 105.17140 | 37325 ft | 369 kts | 279° |
| 2026-04-19 23:00 | 41.60620 | 105.10309 | 37333 ft | 369 kts | 279° |
| 2026-04-19 23:00 | 41.61089 | 105.03486 | 37335 ft | 368 kts | 279° |
| 2026-04-19 23:01 | 41.61554 | 104.96662 | 37335 ft | 369 kts | 279° |
| 2026-04-19 23:01 | 41.62015 | 104.89835 | 37330 ft | 369 kts | 279° |
| 2026-04-19 23:02 | 41.62473 | 104.83007 | 37338 ft | 369 kts | 279° |
| 2026-04-19 23:02 | 41.62920 | 104.76270 | 37338 ft | 369 kts | 279° |
| 2026-04-19 23:03 | 41.63369 | 104.69439 | 37338 ft | 369 kts | 279° |
| 2026-04-19 23:03 | 41.63814 | 104.62599 | 37338 ft | 369 kts | 279° |
| 2026-04-19 23:04 | 41.64256 | 104.55754 | 37339 ft | 369 kts | 279° |
| 2026-04-19 23:04 | 41.64694 | 104.48915 | 37340 ft | 369 kts | 279° |
| 2026-04-19 23:05 | 41.65127 | 104.42077 | 37335 ft | 369 kts | 279° |
| 2026-04-19 23:05 | 41.65553 | 104.35277 | 37341 ft | 369 kts | 279° |
| 2026-04-19 23:06 | 41.65979 | 104.28425 | 37338 ft | 369 kts | 279° |
| 2026-04-19 23:06 | 41.66399 | 104.21580 | 37329 ft | 369 kts | 279° |
| 2026-04-19 23:07 | 41.66817 | 104.14727 | 37335 ft | 370 kts | 279° |
| 2026-04-19 23:07 | 41.67231 | 104.07872 | 37336 ft | 370 kts | 279° |
| 2026-04-19 23:08 | 41.67641 | 104.01011 | 37336 ft | 370 kts | 279° |
| 2026-04-19 23:08 | 41.68047 | 103.94153 | 37335 ft | 370 kts | 279° |
| 2026-04-19 23:09 | 41.68446 | 103.87323 | 37333 ft | 370 kts | 279° |
| 2026-04-19 23:09 | 41.68845 | 103.80454 | 37334 ft | 371 kts | 278° |
| 2026-04-19 23:10 | 41.69241 | 103.73558 | 37334 ft | 371 kts | 278° |
| 2026-04-19 23:10 | 41.69631 | 103.66662 | 37336 ft | 371 kts | 278° |
| 2026-04-19 23:11 | 41.70016 | 103.59804 | 37327 ft | 371 kts | 278° |
| 2026-04-19 23:11 | 41.70399 | 103.52897 | 37330 ft | 372 kts | 278° |
| 2026-04-19 23:12 | 41.70778 | 103.45993 | 37316 ft | 372 kts | 278° |
| 2026-04-19 23:12 | 41.71154 | 103.39086 | 37325 ft | 372 kts | 278° |
| 2026-04-19 23:13 | 41.71523 | 103.32212 | 37317 ft | 372 kts | 278° |
| 2026-04-19 23:13 | 41.71890 | 103.25299 | 37317 ft | 372 kts | 278° |
| 2026-04-19 23:14 | 41.72253 | 103.18374 | 37310 ft | 372 kts | 278° |
| 2026-04-19 23:14 | 41.72612 | 103.11467 | 37309 ft | 372 kts | 277° |
| 2026-04-19 23:15 | 41.72966 | 103.04557 | 37314 ft | 372 kts | 277° |
| 2026-04-19 23:15 | 41.73314 | 102.97690 | 37307 ft | 372 kts | 277° |
| 2026-04-19 23:16 | 41.73660 | 102.90785 | 37299 ft | 372 kts | 277° |
| 2026-04-19 23:16 | 41.74002 | 102.83871 | 37309 ft | 372 kts | 277° |
| 2026-04-19 23:17 | 41.74340 | 102.76958 | 37291 ft | 372 kts | 277° |
| 2026-04-19 23:17 | 41.74673 | 102.70049 | 37309 ft | 371 kts | 277° |
| 2026-04-19 23:18 | 41.75002 | 102.63143 | 37308 ft | 371 kts | 277° |
| 2026-04-19 23:18 | 41.75327 | 102.56234 | 37297 ft | 371 kts | 277° |
| 2026-04-19 23:19 | 41.75648 | 102.49327 | 37299 ft | 371 kts | 277° |
| 2026-04-19 23:19 | 41.75963 | 102.42465 | 37280 ft | 371 kts | 277° |
| 2026-04-19 23:20 | 41.76275 | 102.35563 | 37285 ft | 371 kts | 277° |
| 2026-04-19 23:20 | 41.76584 | 102.28653 | 37285 ft | 371 kts | 277° |
| 2026-04-19 23:21 | 41.76837 | 102.22915 | 37286 ft | 371 kts | 277° |
| 2026-04-19 23:21 | 41.77137 | 102.16013 | 37280 ft | 371 kts | 277° |
| 2026-04-19 23:22 | 41.77435 | 102.09097 | 37282 ft | 371 kts | 277° |
| 2026-04-19 23:22 | 41.77726 | 102.02223 | 37267 ft | 371 kts | 276° |
| 2026-04-19 23:23 | 41.78013 | 101.95326 | 37268 ft | 371 kts | 276° |
| 2026-04-19 23:23 | 41.78297 | 101.88422 | 37275 ft | 370 kts | 276° |
| 2026-04-19 23:24 | 41.78576 | 101.81529 | 37274 ft | 370 kts | 276° |
| 2026-04-19 23:24 | 41.78852 | 101.74628 | 37272 ft | 370 kts | 276° |
| 2026-04-19 23:25 | 41.79123 | 101.67733 | 37276 ft | 370 kts | 276° |
| 2026-04-19 23:25 | 41.79390 | 101.60845 | 37276 ft | 370 kts | 276° |
| 2026-04-19 23:26 | 41.79651 | 101.53999 | 37274 ft | 370 kts | 276° |
| 2026-04-19 23:26 | 41.79910 | 101.47101 | 37273 ft | 370 kts | 276° |
| 2026-04-19 23:27 | 41.80164 | 101.40206 | 37273 ft | 370 kts | 276° |
| 2026-04-19 23:27 | 41.80415 | 101.33316 | 37273 ft | 370 kts | 275° |
| 2026-04-19 23:28 | 41.80660 | 101.26463 | 37273 ft | 370 kts | 275° |
| 2026-04-19 23:28 | 41.80901 | 101.19576 | 37273 ft | 369 kts | 275° |
| 2026-04-19 23:29 | 41.81139 | 101.12691 | 37270 ft | 369 kts | 275° |
| 2026-04-19 23:29 | 41.81372 | 101.05812 | 37271 ft | 369 kts | 275° |
| 2026-04-19 23:30 | 41.81602 | 100.98930 | 37274 ft | 369 kts | 275° |
| 2026-04-19 23:30 | 41.81826 | 100.92088 | 37274 ft | 369 kts | 275° |
| 2026-04-19 23:31 | 41.82047 | 100.85209 | 37276 ft | 369 kts | 275° |
| 2026-04-19 23:31 | 41.82264 | 100.78324 | 37277 ft | 369 kts | 275° |
| 2026-04-19 23:32 | 41.82477 | 100.71436 | 37275 ft | 369 kts | 275° |
| 2026-04-19 23:32 | 41.82685 | 100.64590 | 37277 ft | 369 kts | 275° |
| 2026-04-19 23:33 | 41.82890 | 100.57709 | 37279 ft | 369 kts | 275° |
| 2026-04-19 23:33 | 41.83090 | 100.50830 | 37278 ft | 369 kts | 274° |
| 2026-04-19 23:34 | 41.83286 | 100.43962 | 37275 ft | 369 kts | 274° |
| 2026-04-19 23:34 | 41.83479 | 100.37084 | 37276 ft | 369 kts | 274° |
| 2026-04-19 23:35 | 41.83667 | 100.30218 | 37278 ft | 369 kts | 274° |
| 2026-04-19 23:35 | 41.83850 | 100.23352 | 37279 ft | 368 kts | 274° |
| 2026-04-19 23:36 | 41.84031 | 100.16467 | 37288 ft | 369 kts | 274° |
| 2026-04-19 23:36 | 41.84206 | 100.09595 | 37275 ft | 369 kts | 274° |
| 2026-04-19 23:37 | 41.84378 | 100.02715 | 37276 ft | 369 kts | 274° |
| 2026-04-19 23:37 | 41.84545 | 99.95840 | 37286 ft | 369 kts | 273° |
| 2026-04-19 23:38 | 41.84709 | 99.88957 | 37288 ft | 369 kts | 273° |
| 2026-04-19 23:38 | 41.84868 | 99.82105 | 37290 ft | 369 kts | 273° |
| 2026-04-19 23:39 | 41.85024 | 99.75207 | 37298 ft | 370 kts | 273° |
| 2026-04-19 23:39 | 41.85175 | 99.68303 | 37290 ft | 370 kts | 273° |
| 2026-04-19 23:40 | 41.85322 | 99.61395 | 37298 ft | 370 kts | 273° |
| 2026-04-19 23:40 | 41.85466 | 99.54491 | 37298 ft | 370 kts | 273° |
| 2026-04-19 23:41 | 41.85605 | 99.47585 | 37299 ft | 370 kts | 273° |
| 2026-04-19 23:41 | 41.85741 | 99.40679 | 37290 ft | 371 kts | 272° |
| 2026-04-19 23:42 | 41.85871 | 99.33799 | 37297 ft | 371 kts | 272° |
| 2026-04-19 23:42 | 41.85998 | 99.26871 | 37285 ft | 371 kts | 272° |
| 2026-04-19 23:43 | 41.86121 | 99.19942 | 37277 ft | 371 kts | 272° |
| 2026-04-19 23:43 | 41.86240 | 99.13012 | 37285 ft | 371 kts | 272° |
| 2026-04-19 23:44 | 41.86355 | 99.06079 | 37275 ft | 372 kts | 272° |
| 2026-04-19 23:44 | 41.86466 | 98.99175 | 37278 ft | 372 kts | 272° |
| 2026-04-19 23:45 | 41.86572 | 98.92220 | 37270 ft | 372 kts | 272° |
| 2026-04-19 23:45 | 41.86675 | 98.85266 | 37270 ft | 372 kts | 272° |
| 2026-04-19 23:46 | 41.86773 | 98.78312 | 37267 ft | 373 kts | 272° |
| 2026-04-19 23:46 | 41.86867 | 98.71352 | 37269 ft | 373 kts | 271° |
| 2026-04-19 23:47 | 41.86958 | 98.64426 | 37259 ft | 374 kts | 271° |
| 2026-04-19 23:47 | 41.87043 | 98.57453 | 37254 ft | 373 kts | 271° |
| 2026-04-19 23:48 | 41.87125 | 98.50486 | 37257 ft | 373 kts | 271° |
| 2026-04-19 23:48 | 41.87202 | 98.43520 | 37246 ft | 373 kts | 271° |
| 2026-04-19 23:49 | 41.87276 | 98.36552 | 37249 ft | 373 kts | 271° |
| 2026-04-19 23:49 | 41.87345 | 98.29578 | 37241 ft | 375 kts | 271° |
| 2026-04-19 23:50 | 41.87411 | 98.22572 | 37244 ft | 375 kts | 271° |
| 2026-04-19 23:50 | 41.87471 | 98.15596 | 37243 ft | 375 kts | 271° |
| 2026-04-19 23:51 | 41.87528 | 98.08588 | 37244 ft | 376 kts | 271° |
| 2026-04-19 23:51 | 41.87581 | 98.01575 | 37243 ft | 375 kts | 271° |
| 2026-04-19 23:52 | 41.87629 | 97.94572 | 37249 ft | 376 kts | 270° |
| 2026-04-19 23:52 | 41.87674 | 97.87530 | 37254 ft | 378 kts | 270° |
| 2026-04-19 23:53 | 41.87713 | 97.80477 | 37249 ft | 378 kts | 270° |
| 2026-04-19 23:53 | 41.87749 | 97.73472 | 37236 ft | 378 kts | 270° |
| 2026-04-19 23:54 | 41.87780 | 97.66417 | 37237 ft | 378 kts | 270° |
| 2026-04-19 23:54 | 41.87807 | 97.59359 | 37242 ft | 378 kts | 270° |
| 2026-04-19 23:55 | 41.87830 | 97.52277 | 37238 ft | 380 kts | 270° |
| 2026-04-19 23:55 | 41.87849 | 97.45175 | 37236 ft | 380 kts | 270° |
| 2026-04-19 23:56 | 41.87863 | 97.38116 | 37238 ft | 380 kts | 270° |
| 2026-04-19 23:56 | 41.87873 | 97.31007 | 37232 ft | 380 kts | 270° |
| 2026-04-19 23:57 | 41.87878 | 97.23910 | 37226 ft | 381 kts | 270° |
| 2026-04-19 23:57 | 41.87879 | 97.16808 | 37224 ft | 381 kts | 270° |
| 2026-04-19 23:58 | 41.87876 | 97.09703 | 37216 ft | 381 kts | 270° |
| 2026-04-19 23:58 | 41.87868 | 97.02595 | 37217 ft | 381 kts | 270° |
| 2026-04-19 23:59 | 41.87856 | 96.95490 | 37209 ft | 381 kts | 270° |
| 2026-04-19 23:59 | 41.87840 | 96.88419 | 37208 ft | 381 kts | 270° |
| 2026-04-20 00:00 | 41.87819 | 96.81313 | 37212 ft | 381 kts | 270° |
| 2026-04-20 00:00 | 41.87794 | 96.74182 | 37209 ft | 382 kts | 270° |
| 2026-04-20 00:01 | 41.87764 | 96.67049 | 37201 ft | 382 kts | 270° |
| 2026-04-20 00:02 | 41.87711 | 96.56356 | 37201 ft | 382 kts | 269° |
| 2026-04-20 00:02 | 41.87671 | 96.49217 | 37193 ft | 382 kts | 269° |
| 2026-04-20 00:03 | 41.87626 | 96.42136 | 37194 ft | 383 kts | 269° |
| 2026-04-20 00:03 | 41.87576 | 96.34973 | 37181 ft | 384 kts | 269° |
| 2026-04-20 00:04 | 41.87522 | 96.27798 | 37182 ft | 384 kts | 269° |
| 2026-04-20 00:04 | 41.87463 | 96.20631 | 37162 ft | 384 kts | 269° |
| 2026-04-20 00:05 | 41.87400 | 96.13469 | 37161 ft | 384 kts | 269° |
| 2026-04-20 00:05 | 41.87333 | 96.06344 | 37145 ft | 384 kts | 269° |
| 2026-04-20 00:06 | 41.87261 | 95.99156 | 37145 ft | 385 kts | 269° |
| 2026-04-20 00:06 | 41.87185 | 95.92060 | 37129 ft | 385 kts | 269° |
| 2026-04-20 00:07 | 41.87104 | 95.84864 | 37124 ft | 385 kts | 269° |
| 2026-04-20 00:07 | 41.87018 | 95.77719 | 37112 ft | 385 kts | 269° |
| 2026-04-20 00:08 | 41.86928 | 95.70523 | 37103 ft | 386 kts | 269° |
| 2026-04-20 00:08 | 41.86833 | 95.63318 | 37093 ft | 387 kts | 268° |
| 2026-04-20 00:09 | 41.86751 | 95.57313 | 37088 ft | 387 kts | 268° |
| 2026-04-20 00:09 | 41.86648 | 95.50077 | 37093 ft | 387 kts | 268° |
| 2026-04-20 00:10 | 41.86540 | 95.42886 | 37080 ft | 387 kts | 268° |
| 2026-04-20 00:10 | 41.86428 | 95.35658 | 37079 ft | 387 kts | 268° |
| 2026-04-20 00:11 | 41.86381 | 95.28433 | 37070 ft | 389 kts | 272° |
| 2026-04-20 00:11 | 41.87346 | 95.21256 | 37065 ft | 394 kts | 285° |
| 2026-04-20 00:12 | 41.89802 | 95.14648 | 37066 ft | 402 kts | 300° |
| 2026-04-20 00:12 | 41.93375 | 95.08793 | 37063 ft | 407 kts | 304° |
| 2026-04-20 00:13 | 41.97126 | 95.03134 | 37062 ft | 408 kts | 305° |
| 2026-04-20 00:13 | 42.00904 | 94.97444 | 37066 ft | 408 kts | 304° |
| 2026-04-20 00:14 | 42.04664 | 94.91712 | 37063 ft | 408 kts | 304° |
| 2026-04-20 00:14 | 42.08412 | 94.85957 | 37064 ft | 409 kts | 304° |
| 2026-04-20 00:15 | 42.12155 | 94.80194 | 37072 ft | 407 kts | 304° |
| 2026-04-20 00:15 | 42.15846 | 94.74505 | 37070 ft | 405 kts | 304° |
| 2026-04-20 00:16 | 42.19555 | 94.68772 | 37064 ft | 405 kts | 304° |
| 2026-04-20 00:16 | 42.23262 | 94.63031 | 37065 ft | 405 kts | 304° |
| 2026-04-20 00:17 | 42.26968 | 94.57284 | 37048 ft | 405 kts | 304° |
| 2026-04-20 00:17 | 42.30670 | 94.51529 | 37053 ft | 406 kts | 304° |
| 2026-04-20 00:18 | 42.34361 | 94.45782 | 37051 ft | 405 kts | 304° |
| 2026-04-20 00:18 | 42.38055 | 94.40022 | 37040 ft | 404 kts | 304° |
| 2026-04-20 00:19 | 42.41714 | 94.34301 | 37041 ft | 404 kts | 304° |
| 2026-04-20 00:19 | 42.45389 | 94.28544 | 37034 ft | 404 kts | 304° |
| 2026-04-20 00:20 | 42.49066 | 94.22774 | 37034 ft | 404 kts | 304° |
| 2026-04-20 00:20 | 42.52740 | 94.16998 | 37034 ft | 404 kts | 304° |
| 2026-04-20 00:21 | 42.56413 | 94.11211 | 37034 ft | 404 kts | 304° |
| 2026-04-20 00:21 | 42.60076 | 94.05429 | 37035 ft | 404 kts | 304° |
| 2026-04-20 00:22 | 42.63735 | 93.99641 | 37034 ft | 404 kts | 304° |
| 2026-04-20 00:22 | 42.67368 | 93.93885 | 37039 ft | 404 kts | 304° |
| 2026-04-20 00:23 | 42.71027 | 93.88074 | 37046 ft | 404 kts | 304° |
| 2026-04-20 00:23 | 42.74675 | 93.82270 | 37039 ft | 403 kts | 304° |
| 2026-04-20 00:24 | 42.78318 | 93.76463 | 37043 ft | 404 kts | 304° |
| 2026-04-20 00:24 | 42.81957 | 93.70619 | 37035 ft | 403 kts | 302° |
| 2026-04-20 00:25 | 42.84853 | 93.64215 | 37041 ft | 393 kts | 289° |
| 2026-04-20 00:25 | 42.86776 | 93.57323 | 37041 ft | 391 kts | 285° |
| 2026-04-20 00:26 | 42.88526 | 93.50298 | 37052 ft | 391 kts | 285° |
| 2026-04-20 00:26 | 42.90250 | 93.43257 | 37049 ft | 391 kts | 285° |
| 2026-04-20 00:27 | 42.91983 | 93.36226 | 37053 ft | 391 kts | 285° |
| 2026-04-20 00:27 | 42.93725 | 93.29190 | 37054 ft | 391 kts | 285° |
| 2026-04-20 00:28 | 42.95466 | 93.22149 | 37050 ft | 391 kts | 285° |
| 2026-04-20 00:28 | 42.97199 | 93.15116 | 37053 ft | 391 kts | 285° |
| 2026-04-20 00:29 | 42.98928 | 93.08073 | 37070 ft | 391 kts | 285° |
| 2026-04-20 00:29 | 43.00646 | 93.01056 | 37055 ft | 392 kts | 285° |
| 2026-04-20 00:30 | 43.02373 | 92.93976 | 37055 ft | 393 kts | 284° |
| 2026-04-20 00:30 | 43.04098 | 92.86886 | 37056 ft | 393 kts | 284° |
| 2026-04-20 00:31 | 43.05819 | 92.79790 | 37054 ft | 393 kts | 284° |
| 2026-04-20 00:31 | 43.07537 | 92.72686 | 37057 ft | 393 kts | 284° |
| 2026-04-20 00:32 | 43.09249 | 92.65583 | 37054 ft | 393 kts | 284° |
| 2026-04-20 00:32 | 43.10961 | 92.58454 | 37060 ft | 394 kts | 284° |
| 2026-04-20 00:33 | 43.12658 | 92.51370 | 37060 ft | 394 kts | 284° |
| 2026-04-20 00:33 | 43.14360 | 92.44243 | 37061 ft | 394 kts | 284° |
| 2026-04-20 00:34 | 43.16059 | 92.37105 | 37061 ft | 394 kts | 284° |
| 2026-04-20 00:34 | 43.17752 | 92.29968 | 37067 ft | 394 kts | 284° |
| 2026-04-20 00:35 | 43.19445 | 92.22809 | 37070 ft | 395 kts | 284° |
| 2026-04-20 00:35 | 43.21135 | 92.15638 | 37070 ft | 395 kts | 284° |
| 2026-04-20 00:36 | 43.22811 | 92.08506 | 37066 ft | 395 kts | 284° |
| 2026-04-20 00:36 | 43.24495 | 92.01321 | 37067 ft | 395 kts | 284° |
| 2026-04-20 00:37 | 43.26175 | 91.94126 | 37075 ft | 395 kts | 284° |
| 2026-04-20 00:37 | 43.27849 | 91.86932 | 37076 ft | 396 kts | 283° |
| 2026-04-20 00:38 | 43.29515 | 91.79748 | 37076 ft | 397 kts | 283° |
| 2026-04-20 00:38 | 43.31195 | 91.72483 | 37075 ft | 397 kts | 283° |
| 2026-04-20 00:39 | 43.32850 | 91.65301 | 37077 ft | 397 kts | 283° |
| 2026-04-20 00:39 | 43.34511 | 91.58070 | 37083 ft | 397 kts | 283° |
| 2026-04-20 00:40 | 43.36169 | 91.50832 | 37078 ft | 397 kts | 283° |
| 2026-04-20 00:40 | 43.37817 | 91.43605 | 37082 ft | 398 kts | 283° |
| 2026-04-20 00:41 | 43.39471 | 91.36336 | 37080 ft | 398 kts | 283° |
| 2026-04-20 00:41 | 43.41124 | 91.29053 | 37078 ft | 398 kts | 283° |
| 2026-04-20 00:42 | 43.42765 | 91.21769 | 37098 ft | 398 kts | 283° |
| 2026-04-20 00:42 | 43.44407 | 91.14446 | 37082 ft | 402 kts | 283° |
| 2026-04-20 00:43 | 43.46049 | 91.07110 | 37082 ft | 404 kts | 283° |
| 2026-04-20 00:43 | 43.47701 | 90.99714 | 37085 ft | 404 kts | 283° |
| 2026-04-20 00:44 | 43.49347 | 90.92315 | 37080 ft | 404 kts | 283° |
| 2026-04-20 00:44 | 43.50986 | 90.84918 | 37083 ft | 404 kts | 283° |
| 2026-04-20 00:45 | 43.52625 | 90.77494 | 37093 ft | 404 kts | 283° |
| 2026-04-20 00:45 | 43.54251 | 90.70107 | 37090 ft | 405 kts | 283° |
| 2026-04-20 00:46 | 43.55881 | 90.62672 | 37085 ft | 405 kts | 283° |
| 2026-04-20 00:46 | 43.57511 | 90.55237 | 37095 ft | 405 kts | 283° |
| 2026-04-20 00:47 | 43.59133 | 90.47779 | 37095 ft | 406 kts | 283° |
| 2026-04-20 00:47 | 43.60743 | 90.40354 | 37094 ft | 406 kts | 283° |
| 2026-04-20 00:48 | 43.62360 | 90.32882 | 37097 ft | 407 kts | 283° |
| 2026-04-20 00:48 | 43.63979 | 90.25366 | 37096 ft | 409 kts | 283° |
| 2026-04-20 00:49 | 43.65598 | 90.17827 | 37095 ft | 410 kts | 283° |
| 2026-04-20 00:49 | 43.67216 | 90.10268 | 37105 ft | 410 kts | 283° |
| 2026-04-20 00:50 | 43.68862 | 90.02713 | 37099 ft | 411 kts | 283° |
| 2026-04-20 00:50 | 43.70596 | 89.95183 | 37102 ft | 412 kts | 284° |
| 2026-04-20 00:51 | 43.72323 | 89.87681 | 37100 ft | 413 kts | 283° |
| 2026-04-20 00:51 | 43.74046 | 89.80101 | 37100 ft | 413 kts | 283° |
| 2026-04-20 00:52 | 43.75756 | 89.72521 | 37099 ft | 413 kts | 283° |
| 2026-04-20 00:52 | 43.77461 | 89.64934 | 37101 ft | 413 kts | 283° |
| 2026-04-20 00:53 | 43.79154 | 89.57374 | 37098 ft | 413 kts | 283° |
| 2026-04-20 00:53 | 43.80852 | 89.49781 | 37091 ft | 413 kts | 283° |
| 2026-04-20 00:54 | 43.82600 | 89.42212 | 37095 ft | 413 kts | 284° |
| 2026-04-20 00:54 | 43.84367 | 89.34624 | 37094 ft | 413 kts | 284° |
| 2026-04-20 00:55 | 43.86111 | 89.27088 | 37095 ft | 414 kts | 284° |
| 2026-04-20 00:55 | 43.87858 | 89.19485 | 37092 ft | 414 kts | 283° |
| 2026-04-20 00:56 | 43.89602 | 89.11859 | 37080 ft | 415 kts | 283° |
| 2026-04-20 00:56 | 43.91341 | 89.04226 | 37079 ft | 415 kts | 283° |
| 2026-04-20 00:57 | 43.93077 | 88.96582 | 37089 ft | 415 kts | 283° |
| 2026-04-20 00:57 | 43.94517 | 88.90226 | 37076 ft | 415 kts | 283° |
| 2026-04-20 00:58 | 43.96527 | 88.81323 | 37082 ft | 416 kts | 283° |
| 2026-04-20 00:58 | 43.98375 | 88.73688 | 37085 ft | 418 kts | 285° |
| 2026-04-20 00:59 | 44.00033 | 88.67316 | 37082 ft | 418 kts | 285° |
| 2026-04-20 00:59 | 44.01988 | 88.59773 | 37077 ft | 417 kts | 285° |
| 2026-04-20 01:00 | 44.03925 | 88.52161 | 37078 ft | 417 kts | 285° |
| 2026-04-20 01:00 | 44.05844 | 88.44540 | 37085 ft | 417 kts | 285° |
| 2026-04-20 01:01 | 44.07761 | 88.36891 | 37083 ft | 418 kts | 285° |
| 2026-04-20 01:01 | 44.09673 | 88.29241 | 37079 ft | 419 kts | 285° |
| 2026-04-20 01:02 | 44.11581 | 88.21588 | 37081 ft | 418 kts | 285° |
| 2026-04-20 01:02 | 44.13471 | 88.13979 | 37093 ft | 418 kts | 285° |
| 2026-04-20 01:03 | 44.15368 | 88.06322 | 37085 ft | 419 kts | 285° |
| 2026-04-20 01:03 | 44.17531 | 87.98750 | 37095 ft | 425 kts | 293° |
| 2026-04-20 01:04 | 44.20826 | 87.91809 | 37119 ft | 431 kts | 300° |
| 2026-04-20 01:04 | 44.24427 | 87.85089 | 37099 ft | 432 kts | 301° |
| 2026-04-20 01:05 | 44.28073 | 87.78397 | 37101 ft | 432 kts | 301° |
| 2026-04-20 01:05 | 44.31693 | 87.71701 | 37100 ft | 432 kts | 301° |
| 2026-04-20 01:06 | 44.35323 | 87.64976 | 37104 ft | 434 kts | 302° |
| 2026-04-20 01:06 | 44.38993 | 87.58309 | 37098 ft | 435 kts | 302° |
| 2026-04-20 01:07 | 44.42688 | 87.51607 | 37101 ft | 436 kts | 302° |
| 2026-04-20 01:07 | 44.46384 | 87.44869 | 37102 ft | 436 kts | 302° |
| 2026-04-20 01:08 | 44.50073 | 87.38118 | 37105 ft | 436 kts | 301° |
| 2026-04-20 01:08 | 44.53728 | 87.31408 | 37106 ft | 436 kts | 301° |
| 2026-04-20 01:09 | 44.57454 | 87.24658 | 37104 ft | 439 kts | 303° |
| 2026-04-20 01:09 | 44.61328 | 87.18022 | 37103 ft | 440 kts | 303° |
| 2026-04-20 01:10 | 44.65224 | 87.11385 | 37107 ft | 439 kts | 303° |
| 2026-04-20 01:10 | 44.71016 | 87.01396 | 37107 ft | 439 kts | 303° |
| 2026-04-20 01:11 | 44.74867 | 86.94715 | 37114 ft | 439 kts | 303° |
| 2026-04-20 01:11 | 44.78703 | 86.88060 | 37114 ft | 441 kts | 303° |
| 2026-04-20 01:12 | 44.82572 | 86.81339 | 37108 ft | 441 kts | 303° |
| 2026-04-20 01:12 | 44.86417 | 86.74607 | 37117 ft | 441 kts | 302° |
| 2026-04-20 01:13 | 44.90208 | 86.67823 | 37111 ft | 440 kts | 302° |
| 2026-04-20 01:13 | 44.93999 | 86.61018 | 37114 ft | 440 kts | 302° |
| 2026-04-20 01:14 | 44.97762 | 86.54268 | 37118 ft | 440 kts | 302° |
| 2026-04-20 01:14 | 45.01566 | 86.47438 | 37120 ft | 442 kts | 302° |
| 2026-04-20 01:15 | 45.05373 | 86.40592 | 37124 ft | 443 kts | 302° |
| 2026-04-20 01:15 | 45.09180 | 86.33728 | 37128 ft | 442 kts | 302° |
| 2026-04-20 01:16 | 45.12953 | 86.26909 | 37125 ft | 442 kts | 302° |
| 2026-04-20 01:16 | 45.16740 | 86.20048 | 37115 ft | 442 kts | 302° |
| 2026-04-20 01:17 | 45.20531 | 86.13160 | 37126 ft | 442 kts | 302° |
| 2026-04-20 01:17 | 45.24323 | 86.06255 | 37142 ft | 444 kts | 302° |
| 2026-04-20 01:18 | 45.28056 | 85.99441 | 37131 ft | 444 kts | 302° |
| 2026-04-20 01:18 | 45.31834 | 85.92530 | 37148 ft | 444 kts | 302° |
| 2026-04-20 01:19 | 45.35610 | 85.85607 | 37130 ft | 442 kts | 302° |
| 2026-04-20 01:19 | 45.39367 | 85.78700 | 37133 ft | 441 kts | 302° |
| 2026-04-20 01:20 | 45.43117 | 85.71786 | 37134 ft | 441 kts | 302° |
| 2026-04-20 01:20 | 45.46865 | 85.64860 | 37136 ft | 441 kts | 301° |
| 2026-04-20 01:21 | 45.50606 | 85.57931 | 37147 ft | 441 kts | 302° |
| 2026-04-20 01:21 | 45.54341 | 85.50998 | 37140 ft | 440 kts | 301° |
| 2026-04-20 01:22 | 45.58063 | 85.44070 | 37142 ft | 440 kts | 301° |
| 2026-04-20 01:22 | 45.61779 | 85.37136 | 37144 ft | 440 kts | 301° |
| 2026-04-20 01:23 | 45.65492 | 85.30191 | 37144 ft | 440 kts | 302° |
| 2026-04-20 01:23 | 45.69205 | 85.23227 | 37145 ft | 441 kts | 302° |
| 2026-04-20 01:24 | 45.72932 | 85.16261 | 37140 ft | 440 kts | 302° |
| 2026-04-20 01:24 | 45.76662 | 85.09299 | 37145 ft | 440 kts | 302° |
| 2026-04-20 01:25 | 45.80387 | 85.02327 | 37146 ft | 440 kts | 302° |
| 2026-04-20 01:25 | 45.84081 | 84.95392 | 37151 ft | 440 kts | 302° |
| 2026-04-20 01:26 | 45.87798 | 84.88397 | 37158 ft | 440 kts | 302° |
| 2026-04-20 01:26 | 45.91511 | 84.81389 | 37150 ft | 441 kts | 302° |
| 2026-04-20 01:27 | 45.95228 | 84.74358 | 37156 ft | 442 kts | 302° |
| 2026-04-20 01:27 | 45.98944 | 84.67311 | 37157 ft | 442 kts | 302° |
| 2026-04-20 01:28 | 46.02638 | 84.60289 | 37171 ft | 442 kts | 302° |
| 2026-04-20 01:28 | 46.06346 | 84.53222 | 37162 ft | 442 kts | 303° |
| 2026-04-20 01:29 | 46.10054 | 84.46138 | 37162 ft | 442 kts | 302° |
| 2026-04-20 01:29 | 46.13756 | 84.39046 | 37163 ft | 443 kts | 302° |
| 2026-04-20 01:30 | 46.17434 | 84.31982 | 37162 ft | 443 kts | 302° |
| 2026-04-20 01:30 | 46.21136 | 84.24857 | 37165 ft | 443 kts | 302° |
| 2026-04-20 01:31 | 46.24832 | 84.17722 | 37163 ft | 443 kts | 303° |
| 2026-04-20 01:31 | 46.28526 | 84.10570 | 37163 ft | 443 kts | 302° |
| 2026-04-20 01:32 | 46.32197 | 84.03399 | 37167 ft | 443 kts | 302° |
| 2026-04-20 01:32 | 46.35836 | 83.96264 | 37173 ft | 443 kts | 302° |
| 2026-04-20 01:33 | 46.39507 | 83.89054 | 37175 ft | 444 kts | 302° |
| 2026-04-20 01:33 | 46.43176 | 83.81837 | 37181 ft | 444 kts | 303° |
| 2026-04-20 01:34 | 46.46837 | 83.74619 | 37174 ft | 444 kts | 302° |
| 2026-04-20 01:34 | 46.50500 | 83.67377 | 37181 ft | 444 kts | 302° |
| 2026-04-20 01:35 | 46.54130 | 83.60182 | 37181 ft | 444 kts | 302° |
| 2026-04-20 01:35 | 46.57781 | 83.52927 | 37178 ft | 444 kts | 302° |
| 2026-04-20 01:36 | 46.61429 | 83.45658 | 37182 ft | 445 kts | 303° |
| 2026-04-20 01:36 | 46.65075 | 83.38373 | 37178 ft | 445 kts | 303° |
| 2026-04-20 01:37 | 46.68595 | 83.30966 | 37184 ft | 444 kts | 299° |
| 2026-04-20 01:37 | 46.71833 | 83.23294 | 37177 ft | 443 kts | 298° |
| 2026-04-20 01:38 | 46.75027 | 83.15670 | 37178 ft | 443 kts | 298° |
| 2026-04-20 01:38 | 46.78282 | 83.08029 | 37178 ft | 443 kts | 299° |
| 2026-04-20 01:39 | 46.81556 | 83.00398 | 37176 ft | 444 kts | 299° |
| 2026-04-20 01:39 | 46.84783 | 82.92712 | 37177 ft | 442 kts | 295° |
| 2026-04-20 01:40 | 46.86875 | 82.84389 | 37180 ft | 437 kts | 279° |
| 2026-04-20 01:40 | 46.87938 | 82.75631 | 37178 ft | 437 kts | 277° |
| 2026-04-20 01:41 | 46.88814 | 82.66822 | 37180 ft | 438 kts | 277° |
| 2026-04-20 01:41 | 46.89672 | 82.58003 | 37175 ft | 438 kts | 277° |
| 2026-04-20 01:42 | 46.90546 | 82.49172 | 37172 ft | 439 kts | 277° |
| 2026-04-20 01:42 | 46.91420 | 82.40392 | 37179 ft | 439 kts | 277° |
| 2026-04-20 01:43 | 46.92297 | 82.31546 | 37175 ft | 439 kts | 277° |
| 2026-04-20 01:43 | 46.93165 | 82.22713 | 37175 ft | 439 kts | 277° |
| 2026-04-20 01:44 | 46.94027 | 82.13864 | 37175 ft | 440 kts | 277° |
| 2026-04-20 01:44 | 46.94878 | 82.05043 | 37178 ft | 440 kts | 277° |
| 2026-04-20 01:45 | 46.95727 | 81.96179 | 37179 ft | 440 kts | 277° |
| 2026-04-20 01:45 | 46.96573 | 81.87301 | 37178 ft | 440 kts | 277° |
| 2026-04-20 01:46 | 46.97266 | 81.79867 | 37179 ft | 440 kts | 277° |
| 2026-04-20 01:46 | 46.98081 | 81.71020 | 37181 ft | 441 kts | 277° |
| 2026-04-20 01:47 | 46.98898 | 81.62098 | 37181 ft | 442 kts | 277° |
| 2026-04-20 01:47 | 46.99711 | 81.53176 | 37178 ft | 442 kts | 277° |
| 2026-04-20 01:48 | 47.00512 | 81.44298 | 37178 ft | 442 kts | 277° |
| 2026-04-20 01:48 | 47.01313 | 81.35353 | 37178 ft | 442 kts | 277° |
| 2026-04-20 01:49 | 47.02106 | 81.26401 | 37180 ft | 442 kts | 277° |
| 2026-04-20 01:49 | 47.02891 | 81.17465 | 37181 ft | 442 kts | 277° |
| 2026-04-20 01:50 | 47.03665 | 81.08582 | 37175 ft | 442 kts | 277° |
| 2026-04-20 01:50 | 47.04435 | 80.99659 | 37175 ft | 443 kts | 277° |
| 2026-04-20 01:51 | 47.05205 | 80.90693 | 37175 ft | 443 kts | 277° |
| 2026-04-20 01:51 | 47.05964 | 80.81696 | 37176 ft | 445 kts | 277° |
| 2026-04-20 01:52 | 47.06721 | 80.72657 | 37178 ft | 446 kts | 277° |
| 2026-04-20 01:52 | 47.07470 | 80.63634 | 37179 ft | 446 kts | 277° |
| 2026-04-20 01:53 | 47.08212 | 80.54607 | 37181 ft | 446 kts | 277° |
| 2026-04-20 01:53 | 47.08946 | 80.45602 | 37181 ft | 447 kts | 277° |
| 2026-04-20 01:54 | 47.09678 | 80.36530 | 37181 ft | 448 kts | 277° |
| 2026-04-20 01:54 | 47.10404 | 80.27430 | 37181 ft | 448 kts | 277° |
| 2026-04-20 01:55 | 47.11123 | 80.18331 | 37182 ft | 448 kts | 277° |
| 2026-04-20 01:55 | 47.11834 | 80.09234 | 37181 ft | 448 kts | 276° |
| 2026-04-20 01:56 | 47.12539 | 80.00123 | 37189 ft | 450 kts | 277° |
| 2026-04-20 01:56 | 47.13239 | 79.90995 | 37189 ft | 450 kts | 277° |
| 2026-04-20 01:57 | 47.13932 | 79.81903 | 37187 ft | 450 kts | 277° |
| 2026-04-20 01:57 | 47.14640 | 79.72764 | 37184 ft | 451 kts | 277° |
| 2026-04-20 01:58 | 47.15344 | 79.63607 | 37177 ft | 451 kts | 277° |
| 2026-04-20 01:58 | 47.16041 | 79.54434 | 37181 ft | 452 kts | 277° |
| 2026-04-20 01:59 | 47.16730 | 79.45244 | 37181 ft | 452 kts | 277° |
| 2026-04-20 01:59 | 47.17412 | 79.36035 | 37181 ft | 452 kts | 277° |
| 2026-04-20 02:00 | 47.18086 | 79.26842 | 37184 ft | 453 kts | 277° |
| 2026-04-20 02:00 | 47.18749 | 79.17691 | 37180 ft | 453 kts | 277° |
| 2026-04-20 02:01 | 47.19409 | 79.08450 | 37182 ft | 454 kts | 277° |
| 2026-04-20 02:01 | 47.20041 | 78.99203 | 37184 ft | 454 kts | 277° |
| 2026-04-20 02:02 | 47.20663 | 78.89944 | 37184 ft | 454 kts | 277° |
| 2026-04-20 02:02 | 47.21280 | 78.80695 | 37181 ft | 454 kts | 277° |
| 2026-04-20 02:03 | 47.21894 | 78.71433 | 37180 ft | 456 kts | 277° |
| 2026-04-20 02:03 | 47.22502 | 78.62143 | 37181 ft | 456 kts | 277° |
| 2026-04-20 02:04 | 47.23099 | 78.52903 | 37188 ft | 457 kts | 277° |
| 2026-04-20 02:04 | 47.23694 | 78.43580 | 37183 ft | 457 kts | 277° |
| 2026-04-20 02:05 | 47.24281 | 78.34249 | 37167 ft | 457 kts | 277° |
| 2026-04-20 02:05 | 47.24858 | 78.24962 | 37177 ft | 458 kts | 277° |
| 2026-04-20 02:06 | 47.25432 | 78.15600 | 37179 ft | 459 kts | 277° |
| 2026-04-20 02:06 | 47.25998 | 78.06247 | 37179 ft | 459 kts | 277° |
| 2026-04-20 02:07 | 47.26556 | 77.96891 | 37190 ft | 459 kts | 277° |
| 2026-04-20 02:07 | 47.27107 | 77.87521 | 37188 ft | 459 kts | 277° |
| 2026-04-20 02:08 | 47.27652 | 77.78128 | 37195 ft | 460 kts | 277° |
| 2026-04-20 02:08 | 47.28190 | 77.68724 | 37195 ft | 460 kts | 277° |
| 2026-04-20 02:09 | 47.28716 | 77.59385 | 37198 ft | 460 kts | 277° |
| 2026-04-20 02:09 | 47.29238 | 77.49987 | 37208 ft | 460 kts | 277° |
| 2026-04-20 02:10 | 47.29753 | 77.40575 | 37211 ft | 461 kts | 277° |
| 2026-04-20 02:10 | 47.30261 | 77.31140 | 37211 ft | 461 kts | 277° |
| 2026-04-20 02:11 | 47.30761 | 77.21711 | 37208 ft | 461 kts | 277° |
| 2026-04-20 02:11 | 47.31250 | 77.12343 | 37209 ft | 462 kts | 277° |
| 2026-04-20 02:12 | 47.31753 | 77.02915 | 37206 ft | 461 kts | 279° |
| 2026-04-20 02:12 | 47.32659 | 76.93577 | 37211 ft | 459 kts | 282° |
| 2026-04-20 02:13 | 47.33715 | 76.84279 | 37211 ft | 459 kts | 282° |
| 2026-04-20 02:13 | 47.34712 | 76.74973 | 37211 ft | 460 kts | 282° |
| 2026-04-20 02:14 | 47.35654 | 76.65641 | 37211 ft | 460 kts | 281° |
| 2026-04-20 02:14 | 47.36572 | 76.56303 | 37210 ft | 460 kts | 281° |
| 2026-04-20 02:15 | 47.37483 | 76.46967 | 37215 ft | 460 kts | 281° |
| 2026-04-20 02:15 | 47.38390 | 76.37615 | 37215 ft | 460 kts | 281° |
| 2026-04-20 02:16 | 47.39284 | 76.28327 | 37211 ft | 460 kts | 281° |
| 2026-04-20 02:16 | 47.40176 | 76.18988 | 37214 ft | 459 kts | 281° |
| 2026-04-20 02:17 | 47.41058 | 76.09652 | 37216 ft | 457 kts | 281° |
| 2026-04-20 02:17 | 47.41929 | 76.00366 | 37216 ft | 456 kts | 281° |
| 2026-04-20 02:18 | 47.42792 | 75.91081 | 37219 ft | 456 kts | 281° |
| 2026-04-20 02:18 | 47.43642 | 75.81863 | 37207 ft | 456 kts | 281° |
| 2026-04-20 02:19 | 47.44489 | 75.72574 | 37218 ft | 456 kts | 281° |
| 2026-04-20 02:19 | 47.45327 | 75.63305 | 37218 ft | 454 kts | 281° |
| 2026-04-20 02:20 | 47.46156 | 75.54046 | 37218 ft | 454 kts | 281° |
| 2026-04-20 02:20 | 47.46976 | 75.44805 | 37214 ft | 453 kts | 281° |
| 2026-04-20 02:21 | 47.48189 | 75.30983 | 37211 ft | 454 kts | 281° |
| 2026-04-20 02:22 | 47.48991 | 75.21730 | 37211 ft | 453 kts | 281° |
| 2026-04-20 02:22 | 47.49782 | 75.12512 | 37211 ft | 451 kts | 281° |
| 2026-04-20 02:23 | 47.50565 | 75.03304 | 37209 ft | 451 kts | 281° |
| 2026-04-20 02:23 | 47.51340 | 74.94099 | 37206 ft | 451 kts | 281° |
| 2026-04-20 02:24 | 47.52108 | 74.84895 | 37205 ft | 451 kts | 281° |
| 2026-04-20 02:24 | 47.52868 | 74.75683 | 37201 ft | 451 kts | 280° |
| 2026-04-20 02:25 | 47.53620 | 74.66478 | 37205 ft | 450 kts | 280° |
| 2026-04-20 02:25 | 47.54364 | 74.57283 | 37205 ft | 450 kts | 280° |
| 2026-04-20 02:26 | 47.55096 | 74.48139 | 37206 ft | 450 kts | 280° |
| 2026-04-20 02:26 | 47.55826 | 74.38928 | 37205 ft | 450 kts | 280° |
| 2026-04-20 02:27 | 47.56548 | 74.29723 | 37201 ft | 450 kts | 280° |
| 2026-04-20 02:27 | 47.57262 | 74.20521 | 37205 ft | 449 kts | 280° |
| 2026-04-20 02:28 | 47.57964 | 74.11383 | 37209 ft | 449 kts | 280° |
| 2026-04-20 02:28 | 47.58662 | 74.02197 | 37204 ft | 449 kts | 280° |
| 2026-04-20 02:29 | 47.59354 | 73.92994 | 37200 ft | 449 kts | 280° |
| 2026-04-20 02:29 | 47.60038 | 73.83788 | 37197 ft | 449 kts | 280° |
| 2026-04-20 02:30 | 47.60714 | 73.74589 | 37202 ft | 449 kts | 280° |
| 2026-04-20 02:30 | 47.61383 | 73.65390 | 37202 ft | 449 kts | 280° |
| 2026-04-20 02:31 | 47.62040 | 73.56253 | 37194 ft | 449 kts | 280° |
| 2026-04-20 02:31 | 47.62695 | 73.47035 | 37198 ft | 449 kts | 280° |
| 2026-04-20 02:32 | 47.63342 | 73.37830 | 37192 ft | 449 kts | 280° |
| 2026-04-20 02:32 | 47.63980 | 73.28636 | 37191 ft | 448 kts | 280° |
| 2026-04-20 02:33 | 47.64610 | 73.19447 | 37193 ft | 447 kts | 280° |
| 2026-04-20 02:33 | 47.65232 | 73.10267 | 37189 ft | 447 kts | 280° |
| 2026-04-20 02:34 | 47.65848 | 73.01082 | 37187 ft | 447 kts | 280° |
| 2026-04-20 02:34 | 47.66354 | 72.93448 | 37178 ft | 447 kts | 280° |
| 2026-04-20 02:35 | 47.66955 | 72.84259 | 37186 ft | 447 kts | 280° |
| 2026-04-20 02:35 | 47.67550 | 72.75074 | 37187 ft | 447 kts | 280° |
| 2026-04-20 02:36 | 47.68136 | 72.65899 | 37182 ft | 447 kts | 280° |
| 2026-04-20 02:36 | 47.68716 | 72.56708 | 37184 ft | 447 kts | 280° |
| 2026-04-20 02:37 | 47.69285 | 72.47576 | 37184 ft | 447 kts | 280° |
| 2026-04-20 02:37 | 47.69850 | 72.38375 | 37182 ft | 447 kts | 280° |
| 2026-04-20 02:38 | 47.70407 | 72.29181 | 37184 ft | 447 kts | 279° |
| 2026-04-20 02:38 | 47.70957 | 72.19980 | 37184 ft | 446 kts | 279° |
| 2026-04-20 02:39 | 47.71499 | 72.10806 | 37186 ft | 446 kts | 279° |
| 2026-04-20 02:39 | 47.72033 | 72.01632 | 37183 ft | 445 kts | 279° |
| 2026-04-20 02:40 | 47.72555 | 71.92523 | 37183 ft | 445 kts | 279° |
| 2026-04-20 02:40 | 47.73074 | 71.83364 | 37188 ft | 445 kts | 279° |
| 2026-04-20 02:41 | 47.73527 | 71.74198 | 37189 ft | 445 kts | 278° |
| 2026-04-20 02:41 | 47.73887 | 71.64997 | 37186 ft | 446 kts | 277° |
| 2026-04-20 02:42 | 47.74241 | 71.55815 | 37179 ft | 445 kts | 277° |
| 2026-04-20 02:42 | 47.74603 | 71.46638 | 37187 ft | 444 kts | 277° |
| 2026-04-20 02:43 | 47.74962 | 71.37534 | 37191 ft | 444 kts | 277° |
| 2026-04-20 02:43 | 47.75317 | 71.28371 | 37195 ft | 444 kts | 277° |
| 2026-04-20 02:44 | 47.75665 | 71.19209 | 37191 ft | 444 kts | 277° |
| 2026-04-20 02:44 | 47.76004 | 71.10046 | 37194 ft | 443 kts | 277° |
| 2026-04-20 02:45 | 47.76335 | 71.00888 | 37195 ft | 443 kts | 277° |
| 2026-04-20 02:45 | 47.76659 | 70.91751 | 37188 ft | 443 kts | 277° |
| 2026-04-20 02:46 | 47.76974 | 70.82670 | 37189 ft | 443 kts | 277° |
| 2026-04-20 02:46 | 47.77283 | 70.73533 | 37196 ft | 443 kts | 277° |
| 2026-04-20 02:47 | 47.77585 | 70.64384 | 37196 ft | 442 kts | 276° |
| 2026-04-20 02:47 | 47.77884 | 70.55249 | 37185 ft | 442 kts | 276° |
| 2026-04-20 02:48 | 47.78165 | 70.46170 | 37188 ft | 442 kts | 276° |
| 2026-04-20 02:48 | 47.78441 | 70.37034 | 37190 ft | 442 kts | 276° |
| 2026-04-20 02:49 | 47.78711 | 70.27899 | 37183 ft | 442 kts | 276° |
| 2026-04-20 02:49 | 47.78974 | 70.18768 | 37185 ft | 442 kts | 276° |
| 2026-04-20 02:50 | 47.79230 | 70.09653 | 37179 ft | 440 kts | 276° |
| 2026-04-20 02:50 | 47.79478 | 70.00549 | 37184 ft | 440 kts | 276° |
| 2026-04-20 02:51 | 47.79719 | 69.91446 | 37182 ft | 440 kts | 276° |
| 2026-04-20 02:51 | 47.79952 | 69.82396 | 37184 ft | 440 kts | 275° |
| 2026-04-20 02:52 | 47.80179 | 69.73241 | 37184 ft | 440 kts | 275° |
| 2026-04-20 02:52 | 47.80397 | 69.64203 | 37184 ft | 440 kts | 275° |
| 2026-04-20 02:53 | 47.80610 | 69.55102 | 37183 ft | 440 kts | 275° |
| 2026-04-20 02:53 | 47.80815 | 69.46006 | 37184 ft | 440 kts | 275° |
| 2026-04-20 02:54 | 47.81013 | 69.36884 | 37182 ft | 440 kts | 275° |
| 2026-04-20 02:54 | 47.81203 | 69.27834 | 37183 ft | 440 kts | 275° |
| 2026-04-20 02:55 | 47.81386 | 69.18741 | 37182 ft | 440 kts | 274° |
| 2026-04-20 02:55 | 47.81562 | 69.09642 | 37194 ft | 440 kts | 274° |
| 2026-04-20 02:56 | 47.81730 | 69.00545 | 37183 ft | 439 kts | 274° |
| 2026-04-20 02:56 | 47.81892 | 68.91450 | 37184 ft | 439 kts | 274° |
| 2026-04-20 02:57 | 47.81973 | 68.82407 | 37184 ft | 441 kts | 269° |
| 2026-04-20 02:57 | 47.81336 | 68.73306 | 37180 ft | 443 kts | 265° |
| 2026-04-20 02:58 | 47.80524 | 68.64220 | 37183 ft | 443 kts | 265° |
| 2026-04-20 02:58 | 47.79674 | 68.55123 | 37178 ft | 443 kts | 265° |
| 2026-04-20 02:59 | 47.78826 | 68.46034 | 37181 ft | 443 kts | 265° |
| 2026-04-20 02:59 | 47.77981 | 68.36960 | 37177 ft | 443 kts | 264° |
| 2026-04-20 03:00 | 47.77137 | 68.27952 | 37176 ft | 442 kts | 264° |
| 2026-04-20 03:00 | 47.76281 | 68.18889 | 37169 ft | 442 kts | 264° |
| 2026-04-20 03:01 | 47.75418 | 68.09838 | 37155 ft | 442 kts | 264° |
| 2026-04-20 03:01 | 47.74552 | 68.00837 | 37143 ft | 442 kts | 264° |
| 2026-04-20 03:02 | 47.73679 | 67.91843 | 37134 ft | 442 kts | 264° |
| 2026-04-20 03:02 | 47.72794 | 67.82793 | 37129 ft | 442 kts | 264° |
| 2026-04-20 03:03 | 47.71892 | 67.73750 | 37127 ft | 443 kts | 263° |
| 2026-04-20 03:03 | 47.70624 | 67.64785 | 37129 ft | 444 kts | 259° |
| 2026-04-20 03:04 | 47.69189 | 67.55868 | 37133 ft | 444 kts | 259° |
| 2026-04-20 03:04 | 47.67791 | 67.46942 | 37165 ft | 444 kts | 259° |
| 2026-04-20 03:05 | 47.66431 | 67.38001 | 37157 ft | 444 kts | 259° |
| 2026-04-20 03:05 | 47.65078 | 67.29056 | 37156 ft | 444 kts | 259° |
| 2026-04-20 03:06 | 47.63720 | 67.20125 | 37146 ft | 444 kts | 259° |
| 2026-04-20 03:06 | 47.62353 | 67.11207 | 37151 ft | 443 kts | 259° |
| 2026-04-20 03:07 | 47.60981 | 67.02305 | 37151 ft | 443 kts | 259° |
| 2026-04-20 03:07 | 47.59610 | 66.93467 | 37148 ft | 443 kts | 258° |
| 2026-04-20 03:08 | 47.58223 | 66.84567 | 37148 ft | 443 kts | 258° |
| 2026-04-20 03:08 | 47.56829 | 66.75676 | 37143 ft | 442 kts | 258° |
| 2026-04-20 03:09 | 47.55425 | 66.66847 | 37138 ft | 439 kts | 258° |
| 2026-04-20 03:09 | 47.53977 | 66.58062 | 37134 ft | 439 kts | 257° |
| 2026-04-20 03:10 | 47.52527 | 66.49343 | 37135 ft | 439 kts | 257° |
| 2026-04-20 03:10 | 47.51067 | 66.40573 | 37127 ft | 439 kts | 257° |
| 2026-04-20 03:11 | 47.49604 | 66.31810 | 37121 ft | 438 kts | 257° |
| 2026-04-20 03:11 | 47.48140 | 66.23079 | 37122 ft | 437 kts | 257° |
| 2026-04-20 03:12 | 47.46670 | 66.14359 | 37119 ft | 437 kts | 257° |
| 2026-04-20 03:12 | 47.45194 | 66.05644 | 37119 ft | 437 kts | 257° |
| 2026-04-20 03:13 | 47.43736 | 65.97085 | 37110 ft | 437 kts | 256° |
| 2026-04-20 03:13 | 47.42251 | 65.88404 | 37110 ft | 436 kts | 256° |
| 2026-04-20 03:14 | 47.40775 | 65.79774 | 37111 ft | 436 kts | 256° |
| 2026-04-20 03:14 | 47.39342 | 65.71058 | 37110 ft | 436 kts | 257° |
| 2026-04-20 03:15 | 47.37914 | 65.62344 | 37106 ft | 436 kts | 257° |
| 2026-04-20 03:15 | 47.36481 | 65.53706 | 37105 ft | 436 kts | 256° |
| 2026-04-20 03:16 | 47.35028 | 65.45021 | 37104 ft | 436 kts | 256° |
| 2026-04-20 03:16 | 47.33572 | 65.36376 | 37099 ft | 436 kts | 256° |
| 2026-04-20 03:17 | 47.32105 | 65.27705 | 37101 ft | 436 kts | 256° |
| 2026-04-20 03:17 | 47.30631 | 65.19036 | 37096 ft | 436 kts | 255° |
| 2026-04-20 03:18 | 47.29149 | 65.10369 | 37100 ft | 436 kts | 255° |
| 2026-04-20 03:18 | 47.27662 | 65.01704 | 37094 ft | 436 kts | 255° |
| 2026-04-20 03:19 | 47.26173 | 64.93057 | 37095 ft | 436 kts | 255° |
| 2026-04-20 03:19 | 47.24677 | 64.84454 | 37088 ft | 436 kts | 255° |
| 2026-04-20 03:20 | 47.23166 | 64.75818 | 37088 ft | 435 kts | 255° |
| 2026-04-20 03:20 | 47.21655 | 64.67204 | 37086 ft | 435 kts | 255° |
| 2026-04-20 03:21 | 47.20139 | 64.58597 | 37080 ft | 435 kts | 255° |
| 2026-04-20 03:21 | 47.18617 | 64.49997 | 37081 ft | 435 kts | 255° |
| 2026-04-20 03:22 | 47.17094 | 64.41394 | 37081 ft | 435 kts | 255° |
| 2026-04-20 03:22 | 47.15822 | 64.34238 | 37079 ft | 435 kts | 255° |
| 2026-04-20 03:23 | 47.14285 | 64.25632 | 37082 ft | 435 kts | 254° |
| 2026-04-20 03:23 | 47.12742 | 64.17035 | 37080 ft | 435 kts | 254° |
| 2026-04-20 03:24 | 47.11193 | 64.08444 | 37069 ft | 435 kts | 254° |
| 2026-04-20 03:24 | 47.09637 | 63.99856 | 37069 ft | 435 kts | 254° |
| 2026-04-20 03:25 | 47.08120 | 63.91525 | 37065 ft | 435 kts | 254° |
| 2026-04-20 03:25 | 47.06547 | 63.82925 | 37066 ft | 435 kts | 254° |
| 2026-04-20 03:26 | 47.04972 | 63.74353 | 37061 ft | 435 kts | 254° |
| 2026-04-20 03:26 | 47.03390 | 63.65785 | 37058 ft | 435 kts | 254° |
| 2026-04-20 03:27 | 47.01802 | 63.57219 | 37053 ft | 436 kts | 254° |
| 2026-04-20 03:27 | 47.00203 | 63.48638 | 37047 ft | 437 kts | 254° |
| 2026-04-20 03:28 | 46.98595 | 63.40051 | 37043 ft | 437 kts | 253° |
| 2026-04-20 03:28 | 46.96182 | 63.27230 | 37039 ft | 437 kts | 253° |
| 2026-04-20 03:29 | 46.94557 | 63.18648 | 37031 ft | 437 kts | 253° |
| 2026-04-20 03:29 | 46.92927 | 63.10074 | 37031 ft | 437 kts | 253° |
| 2026-04-20 03:30 | 46.91288 | 63.01501 | 37025 ft | 437 kts | 253° |
| 2026-04-20 03:30 | 46.89644 | 62.92933 | 37026 ft | 437 kts | 253° |
| 2026-04-20 03:31 | 46.87996 | 62.84380 | 37019 ft | 437 kts | 253° |
| 2026-04-20 03:31 | 46.86335 | 62.75806 | 37018 ft | 438 kts | 253° |
| 2026-04-20 03:32 | 46.84679 | 62.67297 | 37010 ft | 438 kts | 253° |
| 2026-04-20 03:32 | 46.83007 | 62.58734 | 37010 ft | 438 kts | 253° |
| 2026-04-20 03:33 | 46.81330 | 62.50190 | 37019 ft | 438 kts | 253° |
| 2026-04-20 03:33 | 46.79656 | 62.41693 | 37004 ft | 437 kts | 252° |
| 2026-04-20 03:34 | 46.77971 | 62.33176 | 37004 ft | 437 kts | 252° |
| 2026-04-20 03:34 | 46.76280 | 62.24663 | 36996 ft | 437 kts | 252° |
| 2026-04-20 03:35 | 46.74581 | 62.16150 | 36996 ft | 437 kts | 252° |
| 2026-04-20 03:35 | 46.72876 | 62.07649 | 36987 ft | 436 kts | 252° |
| 2026-04-20 03:36 | 46.71169 | 61.99170 | 36985 ft | 436 kts | 252° |
| 2026-04-20 03:36 | 46.69453 | 61.90683 | 36985 ft | 436 kts | 252° |
| 2026-04-20 03:37 | 46.67743 | 61.82262 | 36982 ft | 436 kts | 252° |
| 2026-04-20 03:37 | 46.66017 | 61.73795 | 36989 ft | 436 kts | 252° |
| 2026-04-20 03:38 | 46.64281 | 61.65319 | 36974 ft | 436 kts | 252° |
| 2026-04-20 03:38 | 46.62541 | 61.56859 | 36975 ft | 436 kts | 252° |
| 2026-04-20 03:39 | 46.60799 | 61.48420 | 36968 ft | 436 kts | 251° |
| 2026-04-20 03:39 | 46.59048 | 61.39981 | 36969 ft | 436 kts | 251° |
| 2026-04-20 03:40 | 46.57294 | 61.31556 | 36962 ft | 435 kts | 251° |
| 2026-04-20 03:40 | 46.55542 | 61.23182 | 36963 ft | 435 kts | 251° |
| 2026-04-20 03:41 | 46.53777 | 61.14777 | 36955 ft | 435 kts | 251° |
| 2026-04-20 03:41 | 46.52005 | 61.06375 | 36953 ft | 435 kts | 251° |
| 2026-04-20 03:42 | 46.50225 | 60.97968 | 36960 ft | 435 kts | 251° |
| 2026-04-20 03:42 | 46.48443 | 60.89586 | 36949 ft | 434 kts | 251° |
| 2026-04-20 03:43 | 46.46657 | 60.81217 | 36945 ft | 434 kts | 251° |
| 2026-04-20 03:43 | 46.44865 | 60.72860 | 36939 ft | 434 kts | 251° |
| 2026-04-20 03:44 | 46.43077 | 60.64552 | 36923 ft | 434 kts | 251° |
| 2026-04-20 03:44 | 46.41274 | 60.56210 | 36937 ft | 434 kts | 251° |
| 2026-04-20 03:45 | 46.39465 | 60.47870 | 36919 ft | 433 kts | 251° |
| 2026-04-20 03:45 | 46.37649 | 60.39535 | 36922 ft | 433 kts | 251° |
| 2026-04-20 03:46 | 46.35827 | 60.31205 | 36934 ft | 433 kts | 251° |
| 2026-04-20 03:46 | 46.34011 | 60.22933 | 36918 ft | 433 kts | 251° |
| 2026-04-20 03:47 | 46.32179 | 60.14625 | 36916 ft | 433 kts | 251° |
| 2026-04-20 03:47 | 46.30339 | 60.06308 | 36918 ft | 433 kts | 251° |
| 2026-04-20 03:48 | 46.28494 | 59.98005 | 36907 ft | 433 kts | 251° |
| 2026-04-20 03:48 | 46.26653 | 59.89750 | 36923 ft | 433 kts | 250° |
| 2026-04-20 03:49 | 46.24799 | 59.81475 | 36908 ft | 433 kts | 250° |
| 2026-04-20 03:49 | 46.22938 | 59.73194 | 36903 ft | 433 kts | 250° |
| 2026-04-20 03:50 | 46.21069 | 59.64938 | 36906 ft | 433 kts | 250° |
| 2026-04-20 03:50 | 46.19182 | 59.56672 | 36903 ft | 433 kts | 250° |
| 2026-04-20 03:51 | 46.17294 | 59.48436 | 36898 ft | 432 kts | 250° |
| 2026-04-20 03:51 | 46.15399 | 59.40192 | 36896 ft | 432 kts | 250° |
| 2026-04-20 03:52 | 46.13513 | 59.32017 | 36904 ft | 433 kts | 250° |
| 2026-04-20 03:52 | 46.11602 | 59.23762 | 36889 ft | 434 kts | 250° |
| 2026-04-20 03:53 | 46.09680 | 59.15492 | 36888 ft | 435 kts | 250° |
| 2026-04-20 03:53 | 46.07753 | 59.07232 | 36880 ft | 435 kts | 250° |
| 2026-04-20 03:54 | 46.05820 | 58.98979 | 36882 ft | 435 kts | 250° |
| 2026-04-20 03:54 | 46.03881 | 58.90726 | 36882 ft | 435 kts | 250° |
| 2026-04-20 03:55 | 46.01936 | 58.82485 | 36876 ft | 435 kts | 250° |
| 2026-04-20 03:55 | 45.99984 | 58.74244 | 36875 ft | 434 kts | 250° |
| 2026-04-20 03:56 | 45.98030 | 58.66025 | 36870 ft | 434 kts | 250° |
| 2026-04-20 03:56 | 45.96085 | 58.57872 | 36862 ft | 434 kts | 250° |
| 2026-04-20 03:57 | 45.94120 | 58.49667 | 36861 ft | 434 kts | 250° |
| 2026-04-20 03:57 | 45.92147 | 58.41460 | 36860 ft | 434 kts | 250° |
| 2026-04-20 03:58 | 45.90170 | 58.33264 | 36855 ft | 434 kts | 249° |
| 2026-04-20 03:58 | 45.88188 | 58.25081 | 36851 ft | 434 kts | 249° |
| 2026-04-20 03:59 | 45.86200 | 58.16898 | 36851 ft | 434 kts | 249° |
| 2026-04-20 03:59 | 45.84206 | 58.08726 | 36840 ft | 434 kts | 249° |
| 2026-04-20 04:00 | 45.82221 | 58.00616 | 36834 ft | 433 kts | 249° |
| 2026-04-20 04:00 | 45.80221 | 57.92475 | 36835 ft | 433 kts | 249° |
| 2026-04-20 04:01 | 45.78215 | 57.84339 | 36827 ft | 433 kts | 249° |
| 2026-04-20 04:01 | 45.76197 | 57.76188 | 36827 ft | 433 kts | 249° |
| 2026-04-20 04:02 | 45.74179 | 57.68062 | 36818 ft | 433 kts | 249° |
| 2026-04-20 04:02 | 45.72157 | 57.59931 | 36819 ft | 434 kts | 249° |
| 2026-04-20 04:03 | 45.70121 | 57.51800 | 36812 ft | 434 kts | 249° |
| 2026-04-20 04:03 | 45.68093 | 57.43728 | 36805 ft | 434 kts | 249° |
| 2026-04-20 04:04 | 45.66044 | 57.35600 | 36807 ft | 434 kts | 249° |
| 2026-04-20 04:04 | 45.63992 | 57.27483 | 36799 ft | 434 kts | 249° |
| 2026-04-20 04:05 | 45.61937 | 57.19385 | 36799 ft | 433 kts | 249° |
| 2026-04-20 04:05 | 45.59874 | 57.11282 | 36790 ft | 434 kts | 249° |
| 2026-04-20 04:06 | 45.57819 | 57.03239 | 36792 ft | 433 kts | 249° |
| 2026-04-20 04:06 | 45.55742 | 56.95141 | 36785 ft | 434 kts | 249° |
| 2026-04-20 04:07 | 45.53661 | 56.87052 | 36782 ft | 434 kts | 248° |
| 2026-04-20 04:07 | 45.51575 | 56.78973 | 36782 ft | 434 kts | 248° |
| 2026-04-20 04:08 | 45.49836 | 56.72259 | 36775 ft | 434 kts | 248° |
| 2026-04-20 04:08 | 45.47740 | 56.64193 | 36774 ft | 434 kts | 248° |
| 2026-04-20 04:09 | 45.45637 | 56.56127 | 36771 ft | 434 kts | 248° |
| 2026-04-20 04:09 | 45.43522 | 56.48044 | 36771 ft | 434 kts | 248° |
| 2026-04-20 04:10 | 45.41421 | 56.40041 | 36766 ft | 434 kts | 248° |
| 2026-04-20 04:10 | 45.39300 | 56.31991 | 36761 ft | 434 kts | 248° |
| 2026-04-20 04:11 | 45.37174 | 56.23947 | 36760 ft | 434 kts | 248° |
| 2026-04-20 04:11 | 45.35045 | 56.15919 | 36757 ft | 434 kts | 248° |
| 2026-04-20 04:12 | 45.32906 | 56.07885 | 36755 ft | 434 kts | 248° |
| 2026-04-20 04:12 | 45.30766 | 55.99869 | 36752 ft | 434 kts | 248° |
| 2026-04-20 04:13 | 45.28621 | 55.91865 | 36746 ft | 434 kts | 248° |
| 2026-04-20 04:13 | 45.26481 | 55.83904 | 36744 ft | 434 kts | 248° |
| 2026-04-20 04:14 | 45.24318 | 55.75886 | 36738 ft | 434 kts | 248° |
| 2026-04-20 04:14 | 45.22150 | 55.67875 | 36738 ft | 434 kts | 248° |
| 2026-04-20 04:15 | 45.19990 | 55.59921 | 36732 ft | 434 kts | 248° |
| 2026-04-20 04:15 | 45.17810 | 55.51919 | 36731 ft | 435 kts | 248° |
| 2026-04-20 04:16 | 45.15624 | 55.43925 | 36731 ft | 435 kts | 248° |
| 2026-04-20 04:16 | 45.13434 | 55.35938 | 36725 ft | 435 kts | 247° |
| 2026-04-20 04:17 | 45.11240 | 55.27965 | 36723 ft | 435 kts | 247° |
| 2026-04-20 04:17 | 45.08783 | 55.20220 | 36716 ft | 434 kts | 238° |
| 2026-04-20 04:18 | 45.05021 | 55.13585 | 36719 ft | 433 kts | 225° |
| 2026-04-20 04:18 | 45.00637 | 55.07726 | 36718 ft | 434 kts | 223° |
| 2026-04-20 04:19 | 44.96156 | 55.02006 | 36713 ft | 434 kts | 223° |
| 2026-04-20 04:19 | 44.91673 | 54.96276 | 36713 ft | 434 kts | 223° |
| 2026-04-20 04:20 | 44.87211 | 54.90537 | 36714 ft | 434 kts | 223° |
| 2026-04-20 04:20 | 44.82748 | 54.84791 | 36713 ft | 434 kts | 223° |
| 2026-04-20 04:21 | 44.78285 | 54.79054 | 36713 ft | 434 kts | 223° |
| 2026-04-20 04:21 | 44.73835 | 54.73350 | 36709 ft | 435 kts | 223° |
| 2026-04-20 04:22 | 44.69355 | 54.67620 | 36711 ft | 435 kts | 223° |
| 2026-04-20 04:22 | 44.65214 | 54.61428 | 36714 ft | 434 kts | 233° |
| 2026-04-20 04:23 | 44.61662 | 54.54561 | 36711 ft | 435 kts | 234° |
| 2026-04-20 04:23 | 44.58227 | 54.47623 | 36708 ft | 435 kts | 235° |
| 2026-04-20 04:24 | 44.54773 | 54.40641 | 36708 ft | 435 kts | 235° |
| 2026-04-20 04:24 | 44.51303 | 54.33682 | 36706 ft | 435 kts | 234° |
| 2026-04-20 04:25 | 44.47823 | 54.26742 | 36700 ft | 436 kts | 234° |
| 2026-04-20 04:25 | 44.44334 | 54.19804 | 36711 ft | 435 kts | 234° |
| 2026-04-20 04:26 | 44.40839 | 54.12870 | 36713 ft | 435 kts | 234° |
| 2026-04-20 04:26 | 44.37366 | 54.05996 | 36713 ft | 435 kts | 234° |
| 2026-04-20 04:27 | 44.33867 | 53.99086 | 36713 ft | 435 kts | 234° |
| 2026-04-20 04:27 | 44.30362 | 53.92180 | 36713 ft | 435 kts | 234° |
| 2026-04-20 04:28 | 44.26849 | 53.85277 | 36717 ft | 435 kts | 234° |
| 2026-04-20 04:28 | 44.23334 | 53.78384 | 36714 ft | 435 kts | 234° |
| 2026-04-20 04:29 | 44.19838 | 53.71545 | 36716 ft | 435 kts | 234° |
| 2026-04-20 04:29 | 44.16321 | 53.64682 | 36716 ft | 435 kts | 234° |
| 2026-04-20 04:30 | 44.12792 | 53.57811 | 36722 ft | 435 kts | 234° |
| 2026-04-20 04:30 | 44.09264 | 53.50958 | 36725 ft | 435 kts | 234° |
| 2026-04-20 04:31 | 44.05732 | 53.44113 | 36721 ft | 436 kts | 234° |
| 2026-04-20 04:31 | 44.02192 | 53.37269 | 36722 ft | 436 kts | 234° |
| 2026-04-20 04:32 | 43.98670 | 53.30478 | 36725 ft | 436 kts | 234° |
| 2026-04-20 04:32 | 43.95119 | 53.23644 | 36725 ft | 436 kts | 234° |
| 2026-04-20 04:33 | 43.91565 | 53.16822 | 36725 ft | 436 kts | 234° |
| 2026-04-20 04:33 | 43.88004 | 53.10001 | 36725 ft | 436 kts | 234° |
| 2026-04-20 04:34 | 43.84442 | 53.03194 | 36725 ft | 436 kts | 234° |
| 2026-04-20 04:34 | 43.80871 | 52.96393 | 36729 ft | 436 kts | 233° |
| 2026-04-20 04:35 | 43.77299 | 52.89605 | 36728 ft | 436 kts | 233° |
| 2026-04-20 04:35 | 43.73724 | 52.82825 | 36731 ft | 436 kts | 233° |
| 2026-04-20 04:36 | 43.68364 | 52.72690 | 36732 ft | 436 kts | 233° |
| 2026-04-20 04:37 | 43.64775 | 52.65921 | 36737 ft | 436 kts | 233° |
| 2026-04-20 04:37 | 43.61173 | 52.59165 | 36741 ft | 436 kts | 233° |
| 2026-04-20 04:38 | 43.57568 | 52.52434 | 36741 ft | 436 kts | 233° |
| 2026-04-20 04:38 | 43.53952 | 52.45694 | 36746 ft | 436 kts | 233° |
| 2026-04-20 04:39 | 43.50338 | 52.38970 | 36753 ft | 437 kts | 233° |
| 2026-04-20 04:39 | 43.46719 | 52.32248 | 36752 ft | 437 kts | 233° |
| 2026-04-20 04:40 | 43.43100 | 52.25543 | 36755 ft | 437 kts | 233° |
| 2026-04-20 04:40 | 43.39470 | 52.18833 | 36758 ft | 437 kts | 233° |
| 2026-04-20 04:41 | 43.35856 | 52.12169 | 36761 ft | 437 kts | 233° |
| 2026-04-20 04:41 | 43.32221 | 52.05479 | 36756 ft | 437 kts | 233° |
| 2026-04-20 04:42 | 43.28580 | 51.98794 | 36764 ft | 437 kts | 233° |
| 2026-04-20 04:42 | 43.24931 | 51.92111 | 36764 ft | 437 kts | 233° |
| 2026-04-20 04:43 | 43.21306 | 51.85486 | 36764 ft | 437 kts | 233° |
| 2026-04-20 04:43 | 43.17655 | 51.78828 | 36772 ft | 437 kts | 233° |
| 2026-04-20 04:44 | 43.14001 | 51.72179 | 36772 ft | 437 kts | 233° |
| 2026-04-20 04:44 | 43.10342 | 51.65536 | 36770 ft | 437 kts | 233° |
| 2026-04-20 04:45 | 43.06668 | 51.58882 | 36772 ft | 437 kts | 233° |
| 2026-04-20 04:45 | 43.03003 | 51.52259 | 36774 ft | 437 kts | 233° |
| 2026-04-20 04:46 | 42.99330 | 51.45636 | 36784 ft | 436 kts | 233° |
| 2026-04-20 04:46 | 42.95688 | 51.39084 | 36785 ft | 436 kts | 233° |
| 2026-04-20 04:47 | 42.92019 | 51.32496 | 36801 ft | 436 kts | 233° |
| 2026-04-20 04:47 | 42.88346 | 51.25917 | 36798 ft | 436 kts | 233° |
| 2026-04-20 04:48 | 42.84665 | 51.19337 | 36808 ft | 436 kts | 233° |
| 2026-04-20 04:48 | 42.80978 | 51.12763 | 36816 ft | 436 kts | 233° |
| 2026-04-20 04:49 | 42.77311 | 51.06239 | 36815 ft | 436 kts | 233° |
| 2026-04-20 04:49 | 42.73619 | 50.99683 | 36827 ft | 436 kts | 233° |
| 2026-04-20 04:50 | 42.69920 | 50.93130 | 36826 ft | 436 kts | 233° |
| 2026-04-20 04:50 | 42.66219 | 50.86588 | 36828 ft | 436 kts | 233° |
| 2026-04-20 04:51 | 42.62537 | 50.80095 | 36835 ft | 436 kts | 233° |
| 2026-04-20 04:51 | 42.58812 | 50.73538 | 36838 ft | 436 kts | 233° |
| 2026-04-20 04:52 | 42.55126 | 50.67066 | 36838 ft | 435 kts | 233° |
| 2026-04-20 04:52 | 42.51419 | 50.60570 | 36844 ft | 435 kts | 232° |
| 2026-04-20 04:53 | 42.47707 | 50.54079 | 36855 ft | 435 kts | 233° |
| 2026-04-20 04:53 | 42.43993 | 50.47600 | 36855 ft | 435 kts | 232° |
| 2026-04-20 04:54 | 42.40374 | 50.41037 | 36852 ft | 435 kts | 235° |
| 2026-04-20 04:54 | 42.36908 | 50.34367 | 36853 ft | 435 kts | 235° |
| 2026-04-20 04:55 | 42.34011 | 50.28806 | 36854 ft | 435 kts | 235° |
| 2026-04-20 04:55 | 42.30503 | 50.22155 | 36862 ft | 434 kts | 234° |
| 2026-04-20 04:56 | 42.26977 | 50.15525 | 36864 ft | 434 kts | 234° |
| 2026-04-20 04:56 | 42.23439 | 50.08894 | 36872 ft | 434 kts | 234° |
| 2026-04-20 04:57 | 42.19924 | 50.02318 | 36870 ft | 434 kts | 234° |
| 2026-04-20 04:57 | 42.16383 | 49.95707 | 36875 ft | 434 kts | 234° |
| 2026-04-20 04:58 | 42.12848 | 49.89119 | 36879 ft | 434 kts | 234° |
| 2026-04-20 04:58 | 42.09301 | 49.82525 | 36879 ft | 434 kts | 234° |
| 2026-04-20 04:59 | 42.05756 | 49.75948 | 36881 ft | 434 kts | 234° |
| 2026-04-20 04:59 | 42.02228 | 49.69417 | 36887 ft | 434 kts | 234° |
| 2026-04-20 05:00 | 41.98672 | 49.62848 | 36887 ft | 434 kts | 234° |
| 2026-04-20 05:00 | 41.95118 | 49.56296 | 36893 ft | 433 kts | 234° |
| 2026-04-20 05:01 | 41.91557 | 49.49748 | 36898 ft | 433 kts | 234° |
| 2026-04-20 05:01 | 41.87997 | 49.43215 | 36898 ft | 434 kts | 234° |
| 2026-04-20 05:02 | 41.84430 | 49.36682 | 36900 ft | 434 kts | 233° |
| 2026-04-20 05:02 | 41.80859 | 49.30156 | 36901 ft | 434 kts | 233° |
| 2026-04-20 05:03 | 41.77459 | 49.23548 | 36900 ft | 434 kts | 236° |
| 2026-04-20 05:03 | 41.74159 | 49.16773 | 36906 ft | 434 kts | 237° |
| 2026-04-20 05:04 | 41.70843 | 49.10020 | 36904 ft | 434 kts | 236° |
| 2026-04-20 05:04 | 41.67487 | 49.03284 | 36903 ft | 434 kts | 236° |
| 2026-04-20 05:05 | 41.64123 | 48.96577 | 36903 ft | 434 kts | 236° |
| 2026-04-20 05:05 | 41.60752 | 48.89873 | 36906 ft | 434 kts | 236° |
| 2026-04-20 05:06 | 41.57403 | 48.83224 | 36909 ft | 434 kts | 236° |
| 2026-04-20 05:06 | 41.54026 | 48.76533 | 36909 ft | 434 kts | 236° |
| 2026-04-20 05:07 | 41.50604 | 48.69891 | 36913 ft | 434 kts | 234° |
| 2026-04-20 05:07 | 41.46977 | 48.63451 | 36914 ft | 434 kts | 232° |
| 2026-04-20 05:08 | 41.43313 | 48.57039 | 36915 ft | 435 kts | 233° |
| 2026-04-20 05:08 | 41.39696 | 48.50573 | 36915 ft | 435 kts | 234° |
| 2026-04-20 05:09 | 41.36150 | 48.44038 | 36913 ft | 435 kts | 234° |
| 2026-04-20 05:09 | 41.32627 | 48.37539 | 36897 ft | 436 kts | 234° |
| 2026-04-20 05:10 | 41.29053 | 48.30988 | 36897 ft | 438 kts | 234° |
| 2026-04-20 05:10 | 41.25465 | 48.24439 | 36891 ft | 438 kts | 234° |
| 2026-04-20 05:11 | 41.21872 | 48.17900 | 36878 ft | 437 kts | 234° |
| 2026-04-20 05:11 | 41.18282 | 48.11379 | 36868 ft | 437 kts | 234° |
| 2026-04-20 05:12 | 41.14824 | 48.04718 | 36875 ft | 438 kts | 240° |
| 2026-04-20 05:12 | 41.12660 | 47.97253 | 36877 ft | 439 kts | 257° |
| 2026-04-20 05:13 | 41.12372 | 47.89170 | 36853 ft | 444 kts | 274° |
| 2026-04-20 05:13 | 41.13469 | 47.81074 | 36853 ft | 447 kts | 278° |
| 2026-04-20 05:14 | 41.14784 | 47.73014 | 36842 ft | 447 kts | 279° |
| 2026-04-20 05:14 | 41.16096 | 47.64920 | 36834 ft | 447 kts | 278° |
| 2026-04-20 05:15 | 41.17364 | 47.56817 | 36857 ft | 448 kts | 278° |
| 2026-04-20 05:15 | 41.18612 | 47.48710 | 36861 ft | 448 kts | 278° |
| 2026-04-20 05:16 | 41.19850 | 47.40607 | 36865 ft | 447 kts | 278° |
| 2026-04-20 05:16 | 41.21076 | 47.32557 | 36886 ft | 447 kts | 278° |
| 2026-04-20 05:17 | 41.22304 | 47.24459 | 36871 ft | 447 kts | 278° |
| 2026-04-20 05:17 | 41.23527 | 47.16354 | 36879 ft | 447 kts | 278° |
| 2026-04-20 05:18 | 41.24744 | 47.08248 | 36894 ft | 447 kts | 278° |
| 2026-04-20 05:18 | 41.25948 | 47.00186 | 36894 ft | 447 kts | 278° |
| 2026-04-20 05:19 | 41.27156 | 46.92058 | 36904 ft | 447 kts | 277° |
| 2026-04-20 05:19 | 41.28358 | 46.83936 | 36896 ft | 447 kts | 277° |
| 2026-04-20 05:20 | 41.29554 | 46.75801 | 36901 ft | 447 kts | 277° |
| 2026-04-20 05:20 | 41.30723 | 46.67679 | 36907 ft | 447 kts | 277° |
| 2026-04-20 05:21 | 41.31849 | 46.59589 | 36917 ft | 448 kts | 277° |
| 2026-04-20 05:21 | 41.32976 | 46.51453 | 36907 ft | 447 kts | 277° |
| 2026-04-20 05:22 | 41.34104 | 46.43303 | 36903 ft | 447 kts | 277° |
| 2026-04-20 05:22 | 41.35229 | 46.35149 | 36896 ft | 447 kts | 277° |
| 2026-04-20 05:23 | 41.36348 | 46.27001 | 36887 ft | 447 kts | 277° |
| 2026-04-20 05:23 | 41.37456 | 46.18887 | 36896 ft | 447 kts | 277° |
| 2026-04-20 05:24 | 41.38564 | 46.10724 | 36889 ft | 447 kts | 277° |
| 2026-04-20 05:24 | 41.39665 | 46.02569 | 36883 ft | 447 kts | 277° |
| 2026-04-20 05:25 | 41.40760 | 45.94419 | 36884 ft | 447 kts | 277° |
| 2026-04-20 05:25 | 41.41849 | 45.86263 | 36879 ft | 447 kts | 276° |
| 2026-04-20 05:26 | 41.42930 | 45.78117 | 36877 ft | 446 kts | 276° |
| 2026-04-20 05:26 | 41.44000 | 45.70009 | 36877 ft | 446 kts | 276° |
| 2026-04-20 05:27 | 41.45070 | 45.61859 | 36876 ft | 446 kts | 276° |
| 2026-04-20 05:27 | 41.46135 | 45.53695 | 36876 ft | 446 kts | 276° |
| 2026-04-20 05:28 | 41.47188 | 45.45583 | 36896 ft | 446 kts | 276° |
| 2026-04-20 05:28 | 41.48242 | 45.37415 | 36880 ft | 447 kts | 276° |
| 2026-04-20 05:29 | 41.49109 | 45.29226 | 36875 ft | 445 kts | 272° |
| 2026-04-20 05:29 | 41.49710 | 45.21006 | 36878 ft | 445 kts | 272° |
| 2026-04-20 05:30 | 41.50312 | 45.12787 | 36889 ft | 445 kts | 272° |
| 2026-04-20 05:30 | 41.50954 | 45.04567 | 36886 ft | 445 kts | 272° |
| 2026-04-20 05:31 | 41.51611 | 44.96345 | 36898 ft | 445 kts | 272° |
| 2026-04-20 05:31 | 41.52260 | 44.88186 | 36900 ft | 445 kts | 272° |
| 2026-04-20 05:32 | 41.52907 | 44.79957 | 36909 ft | 445 kts | 272° |
| 2026-04-20 05:32 | 41.53546 | 44.71728 | 36893 ft | 445 kts | 272° |
| 2026-04-20 05:33 | 41.54180 | 44.63501 | 36888 ft | 445 kts | 272° |
| 2026-04-20 05:33 | 41.54807 | 44.55274 | 36902 ft | 445 kts | 272° |
| 2026-04-20 05:34 | 41.55428 | 44.47043 | 36900 ft | 445 kts | 272° |
| 2026-04-20 05:34 | 41.56349 | 44.34703 | 36908 ft | 445 kts | 272° |
| 2026-04-20 05:35 | 41.56951 | 44.26530 | 36910 ft | 445 kts | 272° |
| 2026-04-20 05:35 | 41.57565 | 44.18290 | 36912 ft | 446 kts | 272° |
| 2026-04-20 05:36 | 41.58214 | 44.10053 | 36914 ft | 446 kts | 272° |
| 2026-04-20 05:36 | 41.58863 | 44.01817 | 36920 ft | 445 kts | 272° |
| 2026-04-20 05:37 | 41.59502 | 43.93564 | 36927 ft | 446 kts | 272° |
| 2026-04-20 05:37 | 41.60126 | 43.85374 | 36939 ft | 446 kts | 272° |
| 2026-04-20 05:38 | 41.60747 | 43.77133 | 36937 ft | 445 kts | 272° |
| 2026-04-20 05:38 | 41.61362 | 43.68902 | 36959 ft | 445 kts | 272° |
| 2026-04-20 05:39 | 41.61972 | 43.60659 | 36960 ft | 445 kts | 272° |
| 2026-04-20 05:39 | 41.62574 | 43.52424 | 36965 ft | 445 kts | 272° |
| 2026-04-20 05:40 | 41.63177 | 43.44189 | 36969 ft | 445 kts | 272° |
| 2026-04-20 05:40 | 41.63767 | 43.36006 | 36974 ft | 445 kts | 272° |
| 2026-04-20 05:41 | 41.64358 | 43.27756 | 36971 ft | 445 kts | 272° |
| 2026-04-20 05:41 | 41.64941 | 43.19511 | 36975 ft | 445 kts | 272° |
| 2026-04-20 05:42 | 41.65519 | 43.11270 | 36978 ft | 445 kts | 271° |
| 2026-04-20 05:42 | 41.65995 | 43.04420 | 36977 ft | 445 kts | 271° |
| 2026-04-20 05:43 | 41.66653 | 42.94836 | 36980 ft | 445 kts | 271° |
| 2026-04-20 05:43 | 41.67082 | 42.87983 | 36983 ft | 443 kts | 268° |
| 2026-04-20 05:44 | 41.66756 | 42.79799 | 36982 ft | 440 kts | 262° |
| 2026-04-20 05:44 | 41.66116 | 42.71657 | 36991 ft | 440 kts | 261° |
| 2026-04-20 05:45 | 41.65419 | 42.63531 | 37003 ft | 440 kts | 261° |
| 2026-04-20 05:45 | 41.64725 | 42.55406 | 37001 ft | 440 kts | 261° |
| 2026-04-20 05:46 | 41.64035 | 42.47282 | 37022 ft | 440 kts | 261° |
| 2026-04-20 05:46 | 41.63340 | 42.39135 | 37019 ft | 440 kts | 261° |
| 2026-04-20 05:47 | 41.62643 | 42.31002 | 37028 ft | 441 kts | 261° |
| 2026-04-20 05:47 | 41.61941 | 42.22900 | 37042 ft | 441 kts | 261° |
| 2026-04-20 05:48 | 41.61229 | 42.14754 | 37044 ft | 441 kts | 260° |
| 2026-04-20 05:48 | 41.60513 | 42.06629 | 37060 ft | 441 kts | 260° |
| 2026-04-20 05:49 | 41.59789 | 41.98481 | 37062 ft | 441 kts | 260° |
| 2026-04-20 05:49 | 41.59060 | 41.90329 | 37066 ft | 442 kts | 260° |
| 2026-04-20 05:50 | 41.58328 | 41.82217 | 37078 ft | 442 kts | 260° |
| 2026-04-20 05:50 | 41.57586 | 41.74066 | 37072 ft | 442 kts | 260° |
| 2026-04-20 05:51 | 41.56837 | 41.65903 | 37075 ft | 442 kts | 260° |
| 2026-04-20 05:51 | 41.56084 | 41.57753 | 37074 ft | 442 kts | 260° |
| 2026-04-20 05:52 | 41.55323 | 41.49593 | 37077 ft | 442 kts | 260° |
| 2026-04-20 05:52 | 41.55137 | 41.41362 | 37081 ft | 446 kts | 269° |
| 2026-04-20 05:53 | 41.55537 | 41.33115 | 37071 ft | 448 kts | 271° |
| 2026-04-20 05:53 | 41.56032 | 41.24801 | 37067 ft | 449 kts | 271° |
| 2026-04-20 05:54 | 41.56525 | 41.16484 | 37069 ft | 449 kts | 271° |
| 2026-04-20 05:54 | 41.56998 | 41.08154 | 37068 ft | 450 kts | 271° |
| 2026-04-20 05:55 | 41.57458 | 40.99824 | 37069 ft | 449 kts | 271° |
| 2026-04-20 05:55 | 41.57910 | 40.91506 | 37057 ft | 449 kts | 271° |
| 2026-04-20 05:56 | 41.58353 | 40.83234 | 37060 ft | 449 kts | 271° |
| 2026-04-20 05:56 | 41.58794 | 40.74922 | 37061 ft | 449 kts | 271° |
| 2026-04-20 05:57 | 41.59229 | 40.66581 | 37060 ft | 449 kts | 271° |
| 2026-04-20 05:57 | 41.59659 | 40.58236 | 37060 ft | 449 kts | 271° |
| 2026-04-20 05:58 | 41.60080 | 40.49949 | 37061 ft | 450 kts | 271° |
| 2026-04-20 05:58 | 41.60499 | 40.41585 | 37058 ft | 450 kts | 271° |
| 2026-04-20 05:59 | 41.60911 | 40.33241 | 37055 ft | 450 kts | 271° |
| 2026-04-20 05:59 | 41.61317 | 40.24898 | 37058 ft | 450 kts | 271° |
| 2026-04-20 06:00 | 41.61714 | 40.16615 | 37060 ft | 450 kts | 271° |
| 2026-04-20 06:00 | 41.62107 | 40.08262 | 37060 ft | 450 kts | 271° |
| 2026-04-20 06:01 | 41.62495 | 39.99915 | 37060 ft | 450 kts | 271° |
| 2026-04-20 06:01 | 41.62877 | 39.91558 | 37058 ft | 450 kts | 270° |
| 2026-04-20 06:02 | 41.63252 | 39.83217 | 37058 ft | 450 kts | 270° |
| 2026-04-20 06:02 | 41.63621 | 39.74875 | 37057 ft | 450 kts | 270° |
| 2026-04-20 06:03 | 41.63985 | 39.66523 | 37054 ft | 450 kts | 270° |
| 2026-04-20 06:03 | 41.64341 | 39.58201 | 37064 ft | 450 kts | 270° |
| 2026-04-20 06:04 | 41.64697 | 39.49838 | 37056 ft | 451 kts | 270° |
| 2026-04-20 06:04 | 41.65040 | 39.41463 | 37052 ft | 451 kts | 270° |
| 2026-04-20 06:05 | 41.65378 | 39.33072 | 37056 ft | 451 kts | 270° |
| 2026-04-20 06:05 | 41.65711 | 39.24685 | 37057 ft | 452 kts | 270° |
| 2026-04-20 06:06 | 41.66037 | 39.16336 | 37059 ft | 452 kts | 270° |
| 2026-04-20 06:06 | 41.66359 | 39.07929 | 37059 ft | 452 kts | 270° |
| 2026-04-20 06:07 | 41.66675 | 38.99531 | 37057 ft | 452 kts | 270° |
| 2026-04-20 06:07 | 41.66984 | 38.91132 | 37059 ft | 452 kts | 270° |
| 2026-04-20 06:08 | 41.67288 | 38.82728 | 37059 ft | 452 kts | 270° |
| 2026-04-20 06:08 | 41.67585 | 38.74327 | 37057 ft | 452 kts | 270° |
| 2026-04-20 06:09 | 41.67876 | 38.65929 | 37055 ft | 452 kts | 270° |
| 2026-04-20 06:09 | 41.68162 | 38.57522 | 37056 ft | 452 kts | 270° |
| 2026-04-20 06:10 | 41.68438 | 38.49175 | 37058 ft | 452 kts | 271° |
| 2026-04-20 06:10 | 41.68712 | 38.40765 | 37059 ft | 452 kts | 270° |
| 2026-04-20 06:11 | 41.68979 | 38.32348 | 37058 ft | 453 kts | 271° |
| 2026-04-20 06:11 | 41.69240 | 38.23927 | 37059 ft | 453 kts | 270° |
| 2026-04-20 06:12 | 41.69495 | 38.15498 | 37059 ft | 453 kts | 270° |
| 2026-04-20 06:12 | 41.69744 | 38.07075 | 37060 ft | 453 kts | 271° |
| 2026-04-20 06:13 | 41.69985 | 37.98692 | 37060 ft | 454 kts | 271° |
| 2026-04-20 06:13 | 41.70222 | 37.90253 | 37066 ft | 454 kts | 271° |
| 2026-04-20 06:14 | 41.70453 | 37.81822 | 37063 ft | 454 kts | 271° |
| 2026-04-20 06:14 | 41.70678 | 37.73368 | 37063 ft | 454 kts | 271° |
| 2026-04-20 06:15 | 41.70898 | 37.64893 | 37068 ft | 456 kts | 271° |
| 2026-04-20 06:15 | 41.71111 | 37.56417 | 37066 ft | 456 kts | 271° |
| 2026-04-20 06:16 | 41.71315 | 37.47979 | 37066 ft | 456 kts | 271° |
| 2026-04-20 06:16 | 41.71515 | 37.39489 | 37069 ft | 456 kts | 271° |
| 2026-04-20 06:17 | 41.71709 | 37.30987 | 37074 ft | 456 kts | 271° |
| 2026-04-20 06:17 | 41.71896 | 37.22537 | 37067 ft | 457 kts | 271° |
| 2026-04-20 06:18 | 41.72078 | 37.14030 | 37069 ft | 458 kts | 271° |
| 2026-04-20 06:18 | 41.72254 | 37.05494 | 37069 ft | 458 kts | 271° |
| 2026-04-20 06:19 | 41.72423 | 36.96969 | 37067 ft | 458 kts | 271° |
| 2026-04-20 06:19 | 41.72587 | 36.88436 | 37071 ft | 458 kts | 271° |
| 2026-04-20 06:20 | 41.72744 | 36.79917 | 37066 ft | 458 kts | 271° |
| 2026-04-20 06:20 | 41.72894 | 36.71391 | 37071 ft | 458 kts | 271° |
| 2026-04-20 06:21 | 41.73038 | 36.62913 | 37066 ft | 458 kts | 271° |
| 2026-04-20 06:21 | 41.73176 | 36.54378 | 37069 ft | 459 kts | 271° |
| 2026-04-20 06:22 | 41.73308 | 36.45822 | 37076 ft | 460 kts | 271° |
| 2026-04-20 06:22 | 41.73434 | 36.37265 | 37077 ft | 460 kts | 271° |
| 2026-04-20 06:23 | 41.73553 | 36.28761 | 37074 ft | 459 kts | 271° |
| 2026-04-20 06:23 | 41.73666 | 36.20194 | 37076 ft | 459 kts | 271° |
| 2026-04-20 06:24 | 41.73773 | 36.11642 | 37068 ft | 460 kts | 271° |
| 2026-04-20 06:24 | 41.73874 | 36.03080 | 37067 ft | 460 kts | 271° |
| 2026-04-20 06:25 | 41.73968 | 35.94515 | 37061 ft | 460 kts | 271° |
| 2026-04-20 06:25 | 41.74056 | 35.85956 | 37063 ft | 460 kts | 271° |
| 2026-04-20 06:26 | 41.74137 | 35.77381 | 37061 ft | 460 kts | 271° |
| 2026-04-20 06:26 | 41.74212 | 35.68854 | 37059 ft | 460 kts | 271° |
| 2026-04-20 06:27 | 41.74281 | 35.60277 | 37059 ft | 460 kts | 271° |
| 2026-04-20 06:27 | 41.74344 | 35.51725 | 37059 ft | 459 kts | 271° |
| 2026-04-20 06:28 | 41.74400 | 35.43165 | 37058 ft | 459 kts | 271° |
| 2026-04-20 06:28 | 41.74449 | 35.34609 | 37060 ft | 460 kts | 271° |
| 2026-04-20 06:29 | 41.74493 | 35.26041 | 37063 ft | 460 kts | 271° |
| 2026-04-20 06:29 | 41.74530 | 35.17467 | 37066 ft | 460 kts | 271° |
| 2026-04-20 06:30 | 41.74560 | 35.08942 | 37066 ft | 461 kts | 271° |
| 2026-04-20 06:30 | 41.74585 | 35.00372 | 37066 ft | 460 kts | 271° |
| 2026-04-20 06:31 | 41.74603 | 34.91798 | 37067 ft | 460 kts | 271° |
| 2026-04-20 06:31 | 41.74615 | 34.83224 | 37068 ft | 461 kts | 271° |
| 2026-04-20 06:32 | 41.74620 | 34.76186 | 37069 ft | 460 kts | 271° |
| 2026-04-20 06:32 | 41.74619 | 34.67622 | 37071 ft | 459 kts | 271° |
| 2026-04-20 06:33 | 41.74971 | 34.59101 | 37073 ft | 457 kts | 281° |
| 2026-04-20 06:33 | 41.76588 | 34.50883 | 37075 ft | 456 kts | 287° |
| 2026-04-20 06:34 | 41.78487 | 34.42750 | 37074 ft | 456 kts | 288° |
| 2026-04-20 06:35 | 41.81355 | 34.30668 | 37078 ft | 454 kts | 288° |
| 2026-04-20 06:35 | 41.83245 | 34.22573 | 37081 ft | 454 kts | 288° |
| 2026-04-20 06:36 | 41.85107 | 34.14523 | 37084 ft | 454 kts | 288° |
| 2026-04-20 06:36 | 41.86971 | 34.06438 | 37085 ft | 453 kts | 288° |
| 2026-04-20 06:37 | 41.88824 | 33.98369 | 37086 ft | 452 kts | 288° |
| 2026-04-20 06:37 | 41.90675 | 33.90284 | 37083 ft | 452 kts | 288° |
| 2026-04-20 06:38 | 41.92518 | 33.82205 | 37091 ft | 452 kts | 288° |
| 2026-04-20 06:38 | 41.94341 | 33.74187 | 37089 ft | 451 kts | 288° |
| 2026-04-20 06:39 | 41.96123 | 33.66103 | 37088 ft | 451 kts | 286° |
| 2026-04-20 06:39 | 41.97683 | 33.57920 | 37089 ft | 451 kts | 285° |
| 2026-04-20 06:40 | 41.99203 | 33.49717 | 37091 ft | 451 kts | 285° |
| 2026-04-20 06:40 | 42.00734 | 33.41599 | 37086 ft | 449 kts | 285° |
| 2026-04-20 06:41 | 42.02285 | 33.33455 | 37094 ft | 449 kts | 285° |
| 2026-04-20 06:41 | 42.03833 | 33.25316 | 37094 ft | 449 kts | 285° |
| 2026-04-20 06:42 | 42.05375 | 33.17172 | 37092 ft | 449 kts | 285° |
| 2026-04-20 06:42 | 42.06909 | 33.09028 | 37096 ft | 448 kts | 285° |
| 2026-04-20 06:43 | 42.08488 | 33.00917 | 37094 ft | 448 kts | 287° |
| 2026-04-20 06:43 | 42.10168 | 32.92844 | 37094 ft | 448 kts | 287° |
| 2026-04-20 06:44 | 42.11842 | 32.84770 | 37100 ft | 448 kts | 287° |
| 2026-04-20 06:44 | 42.13484 | 32.76729 | 37097 ft | 447 kts | 286° |
| 2026-04-20 06:45 | 42.15117 | 32.68650 | 37092 ft | 446 kts | 286° |
| 2026-04-20 06:45 | 42.16742 | 32.60573 | 37094 ft | 446 kts | 286° |
| 2026-04-20 06:46 | 42.18361 | 32.52495 | 37097 ft | 446 kts | 286° |
| 2026-04-20 06:46 | 42.19973 | 32.44402 | 37096 ft | 446 kts | 286° |
| 2026-04-20 06:47 | 42.21569 | 32.36363 | 37094 ft | 446 kts | 286° |
| 2026-04-20 06:47 | 42.23170 | 32.28267 | 37094 ft | 446 kts | 286° |
| 2026-04-20 06:48 | 42.24765 | 32.20167 | 37096 ft | 446 kts | 286° |
| 2026-04-20 06:48 | 42.26349 | 32.12077 | 37096 ft | 445 kts | 285° |
| 2026-04-20 06:49 | 42.27930 | 32.03995 | 37091 ft | 445 kts | 285° |
| 2026-04-20 06:49 | 42.29495 | 31.95962 | 37092 ft | 445 kts | 285° |
| 2026-04-20 06:50 | 42.31066 | 31.87875 | 37094 ft | 445 kts | 285° |
| 2026-04-20 06:50 | 42.32631 | 31.79790 | 37089 ft | 444 kts | 285° |
| 2026-04-20 06:51 | 42.34185 | 31.71722 | 37086 ft | 443 kts | 285° |
| 2026-04-20 06:51 | 42.35734 | 31.63652 | 37084 ft | 444 kts | 285° |
| 2026-04-20 06:52 | 42.37268 | 31.55623 | 37092 ft | 444 kts | 285° |
| 2026-04-20 06:52 | 42.38806 | 31.47544 | 37089 ft | 444 kts | 285° |
| 2026-04-20 06:53 | 42.40302 | 31.39648 | 37087 ft | 443 kts | 285° |
| 2026-04-20 06:53 | 42.41829 | 31.31558 | 37086 ft | 444 kts | 285° |
| 2026-04-20 06:54 | 42.43352 | 31.23457 | 37085 ft | 444 kts | 284° |
| 2026-04-20 06:54 | 42.44870 | 31.15346 | 37087 ft | 444 kts | 284° |
| 2026-04-20 06:55 | 42.46374 | 31.07292 | 37081 ft | 444 kts | 284° |
| 2026-04-20 06:55 | 42.47877 | 30.99185 | 37081 ft | 443 kts | 284° |
| 2026-04-20 06:56 | 42.49373 | 30.91056 | 37083 ft | 443 kts | 284° |
| 2026-04-20 06:56 | 42.50861 | 30.82944 | 37078 ft | 443 kts | 284° |
| 2026-04-20 06:57 | 42.52344 | 30.74833 | 37070 ft | 443 kts | 284° |
| 2026-04-20 06:57 | 42.53811 | 30.66781 | 37076 ft | 442 kts | 284° |
| 2026-04-20 06:58 | 42.55283 | 30.58665 | 37073 ft | 443 kts | 284° |
| 2026-04-20 06:58 | 42.56747 | 30.50554 | 37077 ft | 442 kts | 284° |
| 2026-04-20 06:59 | 42.58205 | 30.42437 | 37070 ft | 441 kts | 284° |
| 2026-04-20 06:59 | 42.59646 | 30.34391 | 37070 ft | 441 kts | 284° |
| 2026-04-20 07:00 | 42.61755 | 30.26597 | 37066 ft | 441 kts | 298° |
| 2026-04-20 07:00 | 42.65345 | 30.19850 | 37066 ft | 442 kts | 309° |
| 2026-04-20 07:01 | 42.69400 | 30.13571 | 37067 ft | 442 kts | 310° |
| 2026-04-20 07:01 | 42.73492 | 30.07339 | 37058 ft | 442 kts | 310° |
| 2026-04-20 07:02 | 42.77588 | 30.01095 | 37059 ft | 442 kts | 310° |
| 2026-04-20 07:02 | 42.81659 | 29.94895 | 37059 ft | 442 kts | 310° |
| 2026-04-20 07:03 | 42.85762 | 29.88655 | 37056 ft | 441 kts | 310° |
| 2026-04-20 07:03 | 42.89867 | 29.82406 | 37053 ft | 442 kts | 310° |
| 2026-04-20 07:04 | 42.93969 | 29.76155 | 37053 ft | 441 kts | 310° |
| 2026-04-20 07:04 | 42.97858 | 29.69747 | 37049 ft | 440 kts | 305° |
| 2026-04-20 07:05 | 43.01430 | 29.62952 | 37051 ft | 440 kts | 304° |
| 2026-04-20 07:05 | 43.04924 | 29.56208 | 36769 ft | 439 kts | 304° |
| 2026-04-20 07:05 | 43.06662 | 29.52841 | 36542 ft | 439 kts | 304° |
| 2026-04-20 07:06 | 43.08449 | 29.49381 | 36313 ft | 440 kts | 304° |
| 2026-04-20 07:06 | 43.10198 | 29.45997 | 36078 ft | 440 kts | 304° |
| 2026-04-20 07:06 | 43.11971 | 29.42571 | 35847 ft | 440 kts | 304° |
| 2026-04-20 07:06 | 43.13742 | 29.39149 | 35616 ft | 440 kts | 304° |
| 2026-04-20 07:07 | 43.15515 | 29.35727 | 35394 ft | 440 kts | 304° |
| 2026-04-20 07:07 | 43.17287 | 29.32309 | 35173 ft | 440 kts | 304° |
| 2026-04-20 07:07 | 43.19059 | 29.28896 | 34941 ft | 440 kts | 304° |
| 2026-04-20 07:07 | 43.20835 | 29.25477 | 34730 ft | 440 kts | 304° |
| 2026-04-20 07:08 | 43.22592 | 29.22095 | 34513 ft | 440 kts | 304° |
| 2026-04-20 07:08 | 43.24363 | 29.18679 | 34301 ft | 440 kts | 304° |
| 2026-04-20 07:08 | 43.26140 | 29.15257 | 34084 ft | 440 kts | 304° |
| 2026-04-20 07:08 | 43.27834 | 29.11756 | 33870 ft | 440 kts | 301° |
| 2026-04-20 07:09 | 43.29446 | 29.08184 | 33590 ft | 440 kts | 301° |
| 2026-04-20 07:09 | 43.31054 | 29.04581 | 33310 ft | 442 kts | 300° |
| 2026-04-20 07:09 | 43.32659 | 29.00967 | 33020 ft | 443 kts | 300° |
| 2026-04-20 07:09 | 43.34234 | 28.97408 | 32406 ft | 440 kts | 301° |
| 2026-04-20 07:10 | 43.35847 | 28.93758 | 31533 ft | 443 kts | 301° |
| 2026-04-20 07:10 | 43.37430 | 28.90167 | 30665 ft | 447 kts | 301° |
| 2026-04-20 07:10 | 43.39046 | 28.86497 | 29750 ft | 450 kts | 301° |
| 2026-04-20 07:10 | 43.40666 | 28.82811 | 28945 ft | 449 kts | 301° |
| 2026-04-20 07:11 | 43.42276 | 28.79144 | 28248 ft | 446 kts | 301° |
| 2026-04-20 07:11 | 43.43872 | 28.75505 | 27587 ft | 442 kts | 301° |
| 2026-04-20 07:11 | 43.45455 | 28.71890 | 26944 ft | 439 kts | 301° |
| 2026-04-20 07:11 | 43.47025 | 28.68300 | 26300 ft | 436 kts | 301° |
| 2026-04-20 07:12 | 43.48579 | 28.64740 | 25714 ft | 432 kts | 301° |
| 2026-04-20 07:12 | 43.50122 | 28.61204 | 25112 ft | 429 kts | 301° |
| 2026-04-20 07:12 | 43.51653 | 28.57690 | 24534 ft | 426 kts | 301° |
| 2026-04-20 07:12 | 43.53169 | 28.54206 | 23959 ft | 422 kts | 301° |
| 2026-04-20 07:13 | 43.54677 | 28.50735 | 23332 ft | 420 kts | 301° |
| 2026-04-20 07:13 | 43.56127 | 28.47307 | 22673 ft | 417 kts | 300° |
| 2026-04-20 07:13 | 43.57565 | 28.43855 | 22104 ft | 412 kts | 300° |
| 2026-04-20 07:13 | 43.58984 | 28.40446 | 21505 ft | 409 kts | 300° |
| 2026-04-20 07:14 | 43.60395 | 28.37057 | 20914 ft | 405 kts | 300° |
| 2026-04-20 07:14 | 43.61794 | 28.33700 | 20350 ft | 401 kts | 300° |
| 2026-04-20 07:14 | 43.63179 | 28.30376 | 19824 ft | 397 kts | 300° |
| 2026-04-20 07:14 | 43.64554 | 28.27071 | 19258 ft | 394 kts | 300° |
| 2026-04-20 07:15 | 43.65914 | 28.23801 | 18742 ft | 390 kts | 300° |
| 2026-04-20 07:15 | 43.67261 | 28.20559 | 18167 ft | 388 kts | 300° |
| 2026-04-20 07:15 | 43.68578 | 28.17386 | 17564 ft | 384 kts | 300° |
| 2026-04-20 07:15 | 43.69901 | 28.14195 | 17011 ft | 380 kts | 300° |
| 2026-04-20 07:16 | 43.71209 | 28.11036 | 16434 ft | 377 kts | 300° |
| 2026-04-20 07:16 | 43.72507 | 28.07897 | 15905 ft | 373 kts | 300° |
| 2026-04-20 07:16 | 43.73786 | 28.04801 | 15358 ft | 370 kts | 300° |
| 2026-04-20 07:16 | 43.75054 | 28.01728 | 14804 ft | 367 kts | 300° |
| 2026-04-20 07:17 | 43.76312 | 27.98676 | 14273 ft | 364 kts | 300° |
| 2026-04-20 07:17 | 43.77558 | 27.95649 | 13771 ft | 360 kts | 300° |
| 2026-04-20 07:17 | 43.78794 | 27.92649 | 13187 ft | 357 kts | 300° |
| 2026-04-20 07:17 | 43.80022 | 27.89662 | 12607 ft | 355 kts | 300° |
| 2026-04-20 07:18 | 43.81225 | 27.86732 | 12050 ft | 353 kts | 300° |
| 2026-04-20 07:18 | 43.82435 | 27.83782 | 11464 ft | 351 kts | 299° |
| 2026-04-20 07:18 | 43.83632 | 27.80862 | 11085 ft | 344 kts | 299° |
| 2026-04-20 07:18 | 43.84797 | 27.78019 | 10891 ft | 332 kts | 299° |
| 2026-04-20 07:19 | 43.85919 | 27.75276 | 10728 ft | 320 kts | 299° |
| 2026-04-20 07:19 | 43.86984 | 27.72668 | 10581 ft | 310 kts | 299° |
| 2026-04-20 07:19 | 43.88024 | 27.70116 | 10453 ft | 299 kts | 299° |
| 2026-04-20 07:19 | 43.89032 | 27.67644 | 10318 ft | 290 kts | 299° |
| 2026-04-20 07:20 | 43.90010 | 27.65244 | 10199 ft | 281 kts | 299° |
| 2026-04-20 07:20 | 43.90966 | 27.62895 | 9954 ft | 279 kts | 299° |
| 2026-04-20 07:20 | 43.91918 | 27.60554 | 9619 ft | 278 kts | 298° |
| 2026-04-20 07:20 | 43.92862 | 27.58234 | 9332 ft | 274 kts | 298° |
| 2026-04-20 07:21 | 43.93800 | 27.55924 | 8989 ft | 275 kts | 298° |
| 2026-04-20 07:21 | 43.94736 | 27.53621 | 8651 ft | 274 kts | 298° |
| 2026-04-20 07:21 | 43.95353 | 27.52100 | 8500 ft | 271 kts | 298° |
| 2026-04-20 07:21 | 43.96274 | 27.49826 | 8227 ft | 269 kts | 298° |
| 2026-04-20 07:22 | 43.97190 | 27.47566 | 7874 ft | 268 kts | 298° |
| 2026-04-20 07:22 | 43.98103 | 27.45307 | 7538 ft | 267 kts | 298° |
| 2026-04-20 07:22 | 43.99001 | 27.43086 | 7217 ft | 266 kts | 298° |
| 2026-04-20 07:22 | 43.99904 | 27.40847 | 6989 ft | 264 kts | 298° |
| 2026-04-20 07:23 | 44.00807 | 27.38614 | 6943 ft | 266 kts | 298° |
| 2026-04-20 07:23 | 44.01712 | 27.36369 | 6942 ft | 266 kts | 298° |
| 2026-04-20 07:23 | 44.02616 | 27.34124 | 6948 ft | 266 kts | 298° |
| 2026-04-20 07:23 | 44.03520 | 27.31880 | 6943 ft | 266 kts | 297° |
| 2026-04-20 07:24 | 44.04422 | 27.29633 | 6945 ft | 266 kts | 298° |
| 2026-04-20 07:24 | 44.05328 | 27.27378 | 6947 ft | 268 kts | 298° |
| 2026-04-20 07:24 | 44.06236 | 27.25123 | 6943 ft | 266 kts | 298° |
| 2026-04-20 07:24 | 44.07130 | 27.22896 | 6944 ft | 268 kts | 298° |
| 2026-04-20 07:25 | 44.08041 | 27.20626 | 6943 ft | 268 kts | 298° |
| 2026-04-20 07:25 | 44.08950 | 27.18358 | 6938 ft | 269 kts | 298° |
| 2026-04-20 07:25 | 44.09860 | 27.16085 | 6940 ft | 269 kts | 298° |
| 2026-04-20 07:25 | 44.10770 | 27.13814 | 6936 ft | 269 kts | 298° |
| 2026-04-20 07:26 | 44.11680 | 27.11540 | 6939 ft | 269 kts | 298° |
| 2026-04-20 07:26 | 44.12581 | 27.09289 | 6936 ft | 269 kts | 298° |
| 2026-04-20 07:26 | 44.13499 | 27.06988 | 6935 ft | 268 kts | 298° |
| 2026-04-20 07:26 | 44.14395 | 27.04738 | 6935 ft | 269 kts | 298° |
| 2026-04-20 07:27 | 44.15303 | 27.02458 | 6941 ft | 269 kts | 298° |
| 2026-04-20 07:27 | 44.16210 | 27.00182 | 6934 ft | 268 kts | 298° |
| 2026-04-20 07:27 | 44.17115 | 26.97907 | 6932 ft | 269 kts | 298° |
| 2026-04-20 07:27 | 44.18023 | 26.95623 | 6935 ft | 269 kts | 297° |
| 2026-04-20 07:28 | 44.18930 | 26.93341 | 6936 ft | 269 kts | 297° |
| 2026-04-20 07:28 | 44.19834 | 26.91059 | 6934 ft | 269 kts | 297° |
| 2026-04-20 07:28 | 44.20730 | 26.88800 | 6936 ft | 269 kts | 297° |
| 2026-04-20 07:28 | 44.21632 | 26.86522 | 6859 ft | 268 kts | 297° |
| 2026-04-20 07:29 | 44.22533 | 26.84249 | 6649 ft | 268 kts | 297° |
| 2026-04-20 07:29 | 44.23433 | 26.81975 | 6415 ft | 268 kts | 297° |
| 2026-04-20 07:29 | 44.24336 | 26.79691 | 6180 ft | 268 kts | 297° |
| 2026-04-20 07:29 | 44.25238 | 26.77410 | 5937 ft | 266 kts | 297° |
| 2026-04-20 07:30 | 44.26131 | 26.75149 | 5671 ft | 267 kts | 297° |
| 2026-04-20 07:30 | 44.27026 | 26.72878 | 5425 ft | 266 kts | 297° |
| 2026-04-20 07:30 | 44.27915 | 26.70621 | 5225 ft | 265 kts | 297° |
| 2026-04-20 07:30 | 44.28807 | 26.68355 | 5105 ft | 267 kts | 297° |
| 2026-04-20 07:31 | 44.29696 | 26.66096 | 4986 ft | 265 kts | 297° |
| 2026-04-20 07:31 | 44.30586 | 26.63837 | 4948 ft | 266 kts | 296° |
| 2026-04-20 07:31 | 44.31465 | 26.61597 | 4932 ft | 266 kts | 296° |
| 2026-04-20 07:31 | 44.32355 | 26.59326 | 4931 ft | 266 kts | 296° |
| 2026-04-20 07:32 | 44.33247 | 26.57053 | 4928 ft | 266 kts | 297° |
| 2026-04-20 07:32 | 44.34135 | 26.54783 | 4936 ft | 266 kts | 296° |
| 2026-04-20 07:32 | 44.35025 | 26.52511 | 4931 ft | 267 kts | 297° |
| 2026-04-20 07:32 | 44.35919 | 26.50232 | 4931 ft | 266 kts | 297° |
| 2026-04-20 07:33 | 44.36806 | 26.47964 | 4929 ft | 266 kts | 296° |
| 2026-04-20 07:33 | 44.37692 | 26.45698 | 4927 ft | 266 kts | 296° |
| 2026-04-20 07:33 | 44.38580 | 26.43420 | 4924 ft | 266 kts | 296° |
| 2026-04-20 07:33 | 44.39464 | 26.41152 | 4947 ft | 267 kts | 296° |
| 2026-04-20 07:34 | 44.40343 | 26.38902 | 4944 ft | 266 kts | 297° |
| 2026-04-20 07:34 | 44.41229 | 26.36628 | 4926 ft | 266 kts | 296° |
| 2026-04-20 07:34 | 44.42113 | 26.34354 | 4930 ft | 266 kts | 296° |
| 2026-04-20 07:35 | 44.43883 | 26.29797 | 4901 ft | 265 kts | 296° |
| 2026-04-20 07:35 | 44.44677 | 26.27494 | 4871 ft | 264 kts | 290° |
| 2026-04-20 07:35 | 44.45344 | 26.25090 | 4812 ft | 264 kts | 289° |
| 2026-04-20 07:35 | 44.45965 | 26.22685 | 4702 ft | 262 kts | 287° |
| 2026-04-20 07:36 | 44.46559 | 26.20261 | 4604 ft | 264 kts | 287° |
| 2026-04-20 07:36 | 44.47138 | 26.17837 | 4492 ft | 259 kts | 287° |
| 2026-04-20 07:36 | 44.47708 | 26.15426 | 4380 ft | 263 kts | 287° |
| 2026-04-20 07:36 | 44.48276 | 26.13017 | 4331 ft | 263 kts | 286° |
| 2026-04-20 07:37 | 44.48848 | 26.10603 | 4192 ft | 262 kts | 287° |
| 2026-04-20 07:37 | 44.49414 | 26.08202 | 4052 ft | 256 kts | 287° |
| 2026-04-20 07:37 | 44.49967 | 26.05854 | 3817 ft | 251 kts | 286° |
| 2026-04-20 07:37 | 44.50517 | 26.03546 | 3563 ft | 249 kts | 287° |
| 2026-04-20 07:38 | 44.51068 | 26.01249 | 3272 ft | 248 kts | 287° |
| 2026-04-20 07:38 | 44.51618 | 25.98964 | 3019 ft | 245 kts | 287° |
| 2026-04-20 07:38 | 44.52154 | 25.96736 | 2948 ft | 237 kts | 287° |
| 2026-04-20 07:38 | 44.52675 | 25.94581 | 2901 ft | 229 kts | 287° |
| 2026-04-20 07:39 | 44.53167 | 25.92515 | 2814 ft | 217 kts | 286° |
| 2026-04-20 07:39 | 44.53630 | 25.90587 | 2651 ft | 201 kts | 288° |
| 2026-04-20 07:39 | 44.54238 | 25.88954 | 2534 ft | 182 kts | 302° |
| 2026-04-20 07:39 | 44.55043 | 25.87734 | 2513 ft | 162 kts | 318° |
| 2026-04-20 07:40 | 44.55954 | 25.86949 | 2481 ft | 144 kts | 333° |
| 2026-04-20 07:40 | 44.56878 | 25.86689 | 2445 ft | 140 kts | 16° |
| 2026-04-20 07:40 | 44.57506 | 25.87648 | 2488 ft | 141 kts | 82° |
| 2026-04-20 07:40 | 44.57427 | 25.89024 | 2534 ft | 142 kts | 103° |
| 2026-04-20 07:41 | 44.57230 | 25.90379 | 2513 ft | 142 kts | 104° |
| 2026-04-20 07:41 | 44.57026 | 25.91732 | 2489 ft | 141 kts | 104° |
| 2026-04-20 07:41 | 44.56846 | 25.93067 | 2485 ft | 143 kts | 102° |
| 2026-04-20 07:41 | 44.56759 | 25.94470 | 2318 ft | 145 kts | 92° |
| 2026-04-20 07:42 | 44.56793 | 25.95878 | 2119 ft | 144 kts | 88° |
| 2026-04-20 07:42 | 44.56866 | 25.97275 | 1908 ft | 143 kts | 87° |
| 2026-04-20 07:42 | 44.56950 | 25.98661 | 1725 ft | 142 kts | 87° |
| 2026-04-20 07:42 | 44.57036 | 26.00032 | 1523 ft | 140 kts | 87° |
| 2026-04-20 07:43 | 44.57143 | 26.01392 | 1334 ft | 140 kts | 85° |
| 2026-04-20 07:43 | 44.57248 | 26.02758 | 1172 ft | 141 kts | 87° |
| 2026-04-20 07:43 | 44.57334 | 26.04101 | 957 ft | 138 kts | 87° |
| 2026-04-20 07:43 | 44.57431 | 26.05418 | 806 ft | 135 kts | 85° |
| 2026-04-20 07:44 | 44.57539 | 26.06739 | 628 ft | 135 kts | 84° |
| 2026-04-20 07:44 | 44.57633 | 26.08047 | 431 ft | 133 kts | 84° |
| 2026-04-20 07:44 | 44.57731 | 26.09334 | 322 ft | 129 kts | 83° |
| 2026-04-20 07:44 | 44.57799 | 26.10252 | 320 ft | 63 kts | 84° |
| 2026-04-20 07:45 | 44.57829 | 26.10818 | 318 ft | 55 kts | 94° |
| 2026-04-20 07:45 | 44.57745 | 26.11139 | 318 ft | 11 kts | 143° |
| 2026-04-20 07:45 | 44.57712 | 26.11137 | 318 ft | 2 kts | 202° |
| 2026-04-20 07:45 | 44.57702 | 26.11120 | 318 ft | 2 kts | 234° |
| 2026-04-20 07:46 | 44.57693 | 26.11095 | 318 ft | 3 kts | 245° |
| 2026-04-20 07:46 | 44.57686 | 26.11052 | 318 ft | 8 kts | 259° |
| 2026-04-20 07:46 | 44.57672 | 26.10899 | 319 ft | 23 kts | 264° |
| 2026-04-20 07:46 | 44.57654 | 26.10616 | 320 ft | 35 kts | 264° |
| 2026-04-20 07:47 | 44.57623 | 26.10224 | 320 ft | 45 kts | 264° |
| 2026-04-20 07:47 | 44.57600 | 26.09917 | 321 ft | 19 kts | 257° |
| 2026-04-20 07:47 | 44.57500 | 26.09838 | 321 ft | 18 kts | 179° |
| 2026-04-20 07:47 | 44.57369 | 26.09854 | 320 ft | 20 kts | 173° |
| 2026-04-20 07:48 | 44.57228 | 26.09876 | 320 ft | 21 kts | 174° |
| 2026-04-20 07:48 | 44.57093 | 26.09894 | 320 ft | 15 kts | 180° |
| 2026-04-20 07:48 | 44.56985 | 26.09912 | 320 ft | 16 kts | 173° |
| 2026-04-20 07:48 | 44.56949 | 26.09918 | 320 ft | 1 kts | 173° |
| 2026-04-20 07:49 | 44.56941 | 26.09919 | 319 ft | 0 kts | 173° |